<?xml version="1.0" encoding="utf-8"?>
<gpx xmlns:xsi="http://www.w3.org/2001/XMLSchema-instance" xmlns:xsd="http://www.w3.org/2001/XMLSchema" version="1.1" creator="Shapelink.com" xmlns="http://www.topografix.com/GPX/1/1" xmlns:gpxtpx="http://www.garmin.com/xmlschemas/TrackPointExtension/v1">
  <metadata>
    <name>Gåing 7.30 km, 2012-03-09</name>
    <desc></desc>
    <author><name>Mikael Blom</name></author> 
    <time>2012-03-09T12:59:29Z</time>
  </metadata>
  <trk>
    <name>Gåing 7.30 km, 2012-03-09</name>
    <trkseg>
      <trkpt lat="59.9822793" lon="17.7386774">
        <ele>0.618042</ele>
        <time>2012-03-09T12:59:29Z</time>
      </trkpt>
      <trkpt lat="59.9822408" lon="17.7384978">
        <ele>7.82788</ele>
        <time>2012-03-09T12:59:32Z</time>
      </trkpt>
      <trkpt lat="59.9823289" lon="17.738446">
        <ele>17.9218</ele>
        <time>2012-03-09T12:59:34Z</time>
      </trkpt>
      <trkpt lat="59.9824405" lon="17.7384483">
        <ele>26.5736</ele>
        <time>2012-03-09T12:59:38Z</time>
      </trkpt>
      <trkpt lat="59.9824408" lon="17.7384069">
        <ele>24.651</ele>
        <time>2012-03-09T12:59:40Z</time>
      </trkpt>
      <trkpt lat="59.9825374" lon="17.7384627">
        <ele>14.557</ele>
        <time>2012-03-09T12:59:47Z</time>
      </trkpt>
      <trkpt lat="59.982593" lon="17.7384671">
        <ele>15.5184</ele>
        <time>2012-03-09T12:59:52Z</time>
      </trkpt>
      <trkpt lat="59.9826606" lon="17.7383898">
        <ele>15.5184</ele>
        <time>2012-03-09T12:59:58Z</time>
      </trkpt>
      <trkpt lat="59.9827451" lon="17.7383425">
        <ele>18.8831</ele>
        <time>2012-03-09T13:00:04Z</time>
      </trkpt>
      <trkpt lat="59.9827445" lon="17.7383135">
        <ele>20.325</ele>
        <time>2012-03-09T13:00:05Z</time>
      </trkpt>
      <trkpt lat="59.9828075" lon="17.7383043">
        <ele>21.2864</ele>
        <time>2012-03-09T13:00:09Z</time>
      </trkpt>
      <trkpt lat="59.9829194" lon="17.7383163">
        <ele>23.209</ele>
        <time>2012-03-09T13:00:15Z</time>
      </trkpt>
      <trkpt lat="59.9829684" lon="17.7382758">
        <ele>22.7283</ele>
        <time>2012-03-09T13:00:19Z</time>
      </trkpt>
      <trkpt lat="59.9830785" lon="17.7382777">
        <ele>20.8057</ele>
        <time>2012-03-09T13:00:25Z</time>
      </trkpt>
      <trkpt lat="59.9831751" lon="17.7383327">
        <ele>15.999</ele>
        <time>2012-03-09T13:00:31Z</time>
      </trkpt>
      <trkpt lat="59.9832564" lon="17.7383458">
        <ele>20.325</ele>
        <time>2012-03-09T13:00:35Z</time>
      </trkpt>
      <trkpt lat="59.9833286" lon="17.738397">
        <ele>16.4797</ele>
        <time>2012-03-09T13:00:39Z</time>
      </trkpt>
      <trkpt lat="59.9833796" lon="17.7383559">
        <ele>15.5184</ele>
        <time>2012-03-09T13:00:44Z</time>
      </trkpt>
      <trkpt lat="59.9834213" lon="17.7383293">
        <ele>15.5184</ele>
        <time>2012-03-09T13:00:47Z</time>
      </trkpt>
      <trkpt lat="59.983474" lon="17.7382499">
        <ele>15.999</ele>
        <time>2012-03-09T13:00:51Z</time>
      </trkpt>
      <trkpt lat="59.9836189" lon="17.7383012">
        <ele>15.999</ele>
        <time>2012-03-09T13:00:57Z</time>
      </trkpt>
      <trkpt lat="59.9836811" lon="17.7382511">
        <ele>14.0764</ele>
        <time>2012-03-09T13:01:02Z</time>
      </trkpt>
      <trkpt lat="59.9837508" lon="17.7381778">
        <ele>16.9604</ele>
        <time>2012-03-09T13:01:09Z</time>
      </trkpt>
      <trkpt lat="59.9838675" lon="17.7382062">
        <ele>16.9604</ele>
        <time>2012-03-09T13:01:14Z</time>
      </trkpt>
      <trkpt lat="59.9839254" lon="17.7381562">
        <ele>16.9604</ele>
        <time>2012-03-09T13:01:18Z</time>
      </trkpt>
      <trkpt lat="59.9839779" lon="17.7381328">
        <ele>17.4412</ele>
        <time>2012-03-09T13:01:22Z</time>
      </trkpt>
      <trkpt lat="59.9840808" lon="17.7381646">
        <ele>14.0764</ele>
        <time>2012-03-09T13:01:28Z</time>
      </trkpt>
      <trkpt lat="59.984175" lon="17.7382197">
        <ele>12.1538</ele>
        <time>2012-03-09T13:01:35Z</time>
      </trkpt>
      <trkpt lat="59.984242" lon="17.7382613">
        <ele>7.82788</ele>
        <time>2012-03-09T13:01:39Z</time>
      </trkpt>
      <trkpt lat="59.9843507" lon="17.7383117">
        <ele>3.98267</ele>
        <time>2012-03-09T13:01:46Z</time>
      </trkpt>
      <trkpt lat="59.9844029" lon="17.7383308">
        <ele>3.02124</ele>
        <time>2012-03-09T13:01:50Z</time>
      </trkpt>
      <trkpt lat="59.9844885" lon="17.7383882">
        <ele>1.57935</ele>
        <time>2012-03-09T13:01:55Z</time>
      </trkpt>
      <trkpt lat="59.9845813" lon="17.7384189">
        <ele>3.02124</ele>
        <time>2012-03-09T13:02:01Z</time>
      </trkpt>
      <trkpt lat="59.9846638" lon="17.738455">
        <ele>5.42456</ele>
        <time>2012-03-09T13:02:06Z</time>
      </trkpt>
      <trkpt lat="59.984741" lon="17.7384344">
        <ele>4.46326</ele>
        <time>2012-03-09T13:02:12Z</time>
      </trkpt>
      <trkpt lat="59.9848507" lon="17.7384903">
        <ele>4.94385</ele>
        <time>2012-03-09T13:02:18Z</time>
      </trkpt>
      <trkpt lat="59.9849386" lon="17.7385443">
        <ele>3.50195</ele>
        <time>2012-03-09T13:02:23Z</time>
      </trkpt>
      <trkpt lat="59.9849637" lon="17.7385336">
        <ele>4.46326</ele>
        <time>2012-03-09T13:02:26Z</time>
      </trkpt>
      <trkpt lat="59.9850481" lon="17.7384882">
        <ele>7.82788</ele>
        <time>2012-03-09T13:02:32Z</time>
      </trkpt>
      <trkpt lat="59.9851188" lon="17.738486">
        <ele>9.75061</ele>
        <time>2012-03-09T13:02:37Z</time>
      </trkpt>
      <trkpt lat="59.9851417" lon="17.7384849">
        <ele>11.1925</ele>
        <time>2012-03-09T13:02:39Z</time>
      </trkpt>
      <trkpt lat="59.9852309" lon="17.7384893">
        <ele>12.6344</ele>
        <time>2012-03-09T13:02:44Z</time>
      </trkpt>
      <trkpt lat="59.9853127" lon="17.7385369">
        <ele>10.2312</ele>
        <time>2012-03-09T13:02:48Z</time>
      </trkpt>
      <trkpt lat="59.9854231" lon="17.7383852">
        <ele>24.1703</ele>
        <time>2012-03-09T13:02:56Z</time>
      </trkpt>
      <trkpt lat="59.9855547" lon="17.7384027">
        <ele>34.7449</ele>
        <time>2012-03-09T13:03:03Z</time>
      </trkpt>
      <trkpt lat="59.9856676" lon="17.7384239">
        <ele>40.9934</ele>
        <time>2012-03-09T13:03:09Z</time>
      </trkpt>
      <trkpt lat="59.9856956" lon="17.738415">
        <ele>39.5513</ele>
        <time>2012-03-09T13:03:13Z</time>
      </trkpt>
      <trkpt lat="59.9857878" lon="17.7384711">
        <ele>37.6287</ele>
        <time>2012-03-09T13:03:20Z</time>
      </trkpt>
      <trkpt lat="59.9858986" lon="17.7384965">
        <ele>44.8386</ele>
        <time>2012-03-09T13:03:26Z</time>
      </trkpt>
      <trkpt lat="59.9860297" lon="17.7385446">
        <ele>52.0486</ele>
        <time>2012-03-09T13:03:31Z</time>
      </trkpt>
      <trkpt lat="59.9861437" lon="17.7386066">
        <ele>56.8551</ele>
        <time>2012-03-09T13:03:37Z</time>
      </trkpt>
      <trkpt lat="59.986226" lon="17.7386699">
        <ele>56.3745</ele>
        <time>2012-03-09T13:03:43Z</time>
      </trkpt>
      <trkpt lat="59.9862712" lon="17.7387092">
        <ele>56.3745</ele>
        <time>2012-03-09T13:03:46Z</time>
      </trkpt>
      <trkpt lat="59.9863539" lon="17.7387711">
        <ele>54.4518</ele>
        <time>2012-03-09T13:03:51Z</time>
      </trkpt>
      <trkpt lat="59.9863966" lon="17.7388274">
        <ele>54.9324</ele>
        <time>2012-03-09T13:03:55Z</time>
      </trkpt>
      <trkpt lat="59.9865061" lon="17.7389227">
        <ele>52.5292</ele>
        <time>2012-03-09T13:04:01Z</time>
      </trkpt>
      <trkpt lat="59.9865605" lon="17.7389684">
        <ele>52.5292</ele>
        <time>2012-03-09T13:04:06Z</time>
      </trkpt>
      <trkpt lat="59.9866104" lon="17.7390589">
        <ele>47.2418</ele>
        <time>2012-03-09T13:04:13Z</time>
      </trkpt>
      <trkpt lat="59.9866228" lon="17.7390785">
        <ele>46.2806</ele>
        <time>2012-03-09T13:04:14Z</time>
      </trkpt>
      <trkpt lat="59.9867259" lon="17.7392341">
        <ele>40.5128</ele>
        <time>2012-03-09T13:04:22Z</time>
      </trkpt>
      <trkpt lat="59.9867984" lon="17.739287">
        <ele>42.916</ele>
        <time>2012-03-09T13:04:27Z</time>
      </trkpt>
      <trkpt lat="59.986884" lon="17.7393816">
        <ele>35.2255</ele>
        <time>2012-03-09T13:04:34Z</time>
      </trkpt>
      <trkpt lat="59.9869424" lon="17.739403">
        <ele>36.6675</ele>
        <time>2012-03-09T13:04:39Z</time>
      </trkpt>
      <trkpt lat="59.987012" lon="17.7394139">
        <ele>33.7834</ele>
        <time>2012-03-09T13:04:45Z</time>
      </trkpt>
      <trkpt lat="59.9870859" lon="17.7394044">
        <ele>33.7834</ele>
        <time>2012-03-09T13:04:49Z</time>
      </trkpt>
      <trkpt lat="59.9871691" lon="17.739416">
        <ele>33.7834</ele>
        <time>2012-03-09T13:04:54Z</time>
      </trkpt>
      <trkpt lat="59.9873076" lon="17.7393992">
        <ele>35.7061</ele>
        <time>2012-03-09T13:05:00Z</time>
      </trkpt>
      <trkpt lat="59.9873506" lon="17.7393942">
        <ele>34.7449</ele>
        <time>2012-03-09T13:05:05Z</time>
      </trkpt>
      <trkpt lat="59.9875003" lon="17.7394008">
        <ele>36.1868</ele>
        <time>2012-03-09T13:05:11Z</time>
      </trkpt>
      <trkpt lat="59.9876164" lon="17.739358">
        <ele>38.1094</ele>
        <time>2012-03-09T13:05:18Z</time>
      </trkpt>
      <trkpt lat="59.9877317" lon="17.7393461">
        <ele>42.4354</ele>
        <time>2012-03-09T13:05:24Z</time>
      </trkpt>
      <trkpt lat="59.9877481" lon="17.7393507">
        <ele>42.4354</ele>
        <time>2012-03-09T13:05:25Z</time>
      </trkpt>
      <trkpt lat="59.9878339" lon="17.7393138">
        <ele>48.684</ele>
        <time>2012-03-09T13:05:29Z</time>
      </trkpt>
      <trkpt lat="59.987927" lon="17.7393134">
        <ele>48.684</ele>
        <time>2012-03-09T13:05:36Z</time>
      </trkpt>
      <trkpt lat="59.9880255" lon="17.7393019">
        <ele>46.2806</ele>
        <time>2012-03-09T13:05:42Z</time>
      </trkpt>
      <trkpt lat="59.9880355" lon="17.7392953">
        <ele>44.8386</ele>
        <time>2012-03-09T13:05:43Z</time>
      </trkpt>
      <trkpt lat="59.9881567" lon="17.7392586">
        <ele>45.7999</ele>
        <time>2012-03-09T13:05:49Z</time>
      </trkpt>
      <trkpt lat="59.9882516" lon="17.739194">
        <ele>46.7612</ele>
        <time>2012-03-09T13:05:56Z</time>
      </trkpt>
      <trkpt lat="59.9883087" lon="17.7391749">
        <ele>50.6066</ele>
        <time>2012-03-09T13:05:59Z</time>
      </trkpt>
      <trkpt lat="59.988402" lon="17.7391123">
        <ele>51.0872</ele>
        <time>2012-03-09T13:06:06Z</time>
      </trkpt>
      <trkpt lat="59.988527" lon="17.7390729">
        <ele>53.9712</ele>
        <time>2012-03-09T13:06:12Z</time>
      </trkpt>
      <trkpt lat="59.9885281" lon="17.7390596">
        <ele>53.0098</ele>
        <time>2012-03-09T13:06:13Z</time>
      </trkpt>
      <trkpt lat="59.9886513" lon="17.7390193">
        <ele>51.0872</ele>
        <time>2012-03-09T13:06:20Z</time>
      </trkpt>
      <trkpt lat="59.9886902" lon="17.7389846">
        <ele>47.2418</ele>
        <time>2012-03-09T13:06:25Z</time>
      </trkpt>
      <trkpt lat="59.9887866" lon="17.7388591">
        <ele>60.2197</ele>
        <time>2012-03-09T13:06:30Z</time>
      </trkpt>
      <trkpt lat="59.9888498" lon="17.7387503">
        <ele>62.6229</ele>
        <time>2012-03-09T13:06:36Z</time>
      </trkpt>
      <trkpt lat="59.9888668" lon="17.7387476">
        <ele>61.181</ele>
        <time>2012-03-09T13:06:37Z</time>
      </trkpt>
      <trkpt lat="59.9890122" lon="17.7386049">
        <ele>66.949</ele>
        <time>2012-03-09T13:06:44Z</time>
      </trkpt>
      <trkpt lat="59.9890839" lon="17.7386731">
        <ele>55.4131</ele>
        <time>2012-03-09T13:06:49Z</time>
      </trkpt>
      <trkpt lat="59.9891104" lon="17.7386405">
        <ele>51.5679</ele>
        <time>2012-03-09T13:06:54Z</time>
      </trkpt>
      <trkpt lat="59.9891741" lon="17.738597">
        <ele>52.5292</ele>
        <time>2012-03-09T13:06:58Z</time>
      </trkpt>
      <trkpt lat="59.9892679" lon="17.7385507">
        <ele>49.1646</ele>
        <time>2012-03-09T13:07:04Z</time>
      </trkpt>
      <trkpt lat="59.9893621" lon="17.7385277">
        <ele>47.7225</ele>
        <time>2012-03-09T13:07:09Z</time>
      </trkpt>
      <trkpt lat="59.9894342" lon="17.7384452">
        <ele>51.5679</ele>
        <time>2012-03-09T13:07:15Z</time>
      </trkpt>
      <trkpt lat="59.9894993" lon="17.7384093">
        <ele>54.4518</ele>
        <time>2012-03-09T13:07:19Z</time>
      </trkpt>
      <trkpt lat="59.9895801" lon="17.7384778">
        <ele>47.7225</ele>
        <time>2012-03-09T13:07:25Z</time>
      </trkpt>
      <trkpt lat="59.989621" lon="17.7384747">
        <ele>40.5128</ele>
        <time>2012-03-09T13:07:30Z</time>
      </trkpt>
      <trkpt lat="59.989688" lon="17.7383953">
        <ele>43.3966</ele>
        <time>2012-03-09T13:07:34Z</time>
      </trkpt>
      <trkpt lat="59.9897643" lon="17.7383799">
        <ele>39.0707</ele>
        <time>2012-03-09T13:07:39Z</time>
      </trkpt>
      <trkpt lat="59.9898474" lon="17.7383653">
        <ele>39.0707</ele>
        <time>2012-03-09T13:07:43Z</time>
      </trkpt>
      <trkpt lat="59.9898786" lon="17.7383489">
        <ele>40.9934</ele>
        <time>2012-03-09T13:07:45Z</time>
      </trkpt>
      <trkpt lat="59.9900296" lon="17.7383082">
        <ele>46.7612</ele>
        <time>2012-03-09T13:07:53Z</time>
      </trkpt>
      <trkpt lat="59.9900504" lon="17.7382986">
        <ele>44.8386</ele>
        <time>2012-03-09T13:07:55Z</time>
      </trkpt>
      <trkpt lat="59.9901639" lon="17.7381181">
        <ele>52.5292</ele>
        <time>2012-03-09T13:08:02Z</time>
      </trkpt>
      <trkpt lat="59.9902577" lon="17.738108">
        <ele>55.8938</ele>
        <time>2012-03-09T13:08:06Z</time>
      </trkpt>
      <trkpt lat="59.9903882" lon="17.7380847">
        <ele>59.2584</ele>
        <time>2012-03-09T13:08:11Z</time>
      </trkpt>
      <trkpt lat="59.9904789" lon="17.7380732">
        <ele>62.1423</ele>
        <time>2012-03-09T13:08:16Z</time>
      </trkpt>
      <trkpt lat="59.9904948" lon="17.7380271">
        <ele>62.6229</ele>
        <time>2012-03-09T13:08:22Z</time>
      </trkpt>
      <trkpt lat="59.9905637" lon="17.7380099">
        <ele>64.5457</ele>
        <time>2012-03-09T13:08:25Z</time>
      </trkpt>
      <trkpt lat="59.9906479" lon="17.7379583">
        <ele>62.1423</ele>
        <time>2012-03-09T13:08:31Z</time>
      </trkpt>
      <trkpt lat="59.9906917" lon="17.7379132">
        <ele>57.3358</ele>
        <time>2012-03-09T13:08:36Z</time>
      </trkpt>
      <trkpt lat="59.9907612" lon="17.7378903">
        <ele>53.9712</ele>
        <time>2012-03-09T13:08:41Z</time>
      </trkpt>
      <trkpt lat="59.9907876" lon="17.7378956">
        <ele>52.5292</ele>
        <time>2012-03-09T13:08:43Z</time>
      </trkpt>
      <trkpt lat="59.9908717" lon="17.7378371">
        <ele>54.9324</ele>
        <time>2012-03-09T13:08:47Z</time>
      </trkpt>
      <trkpt lat="59.9910024" lon="17.7377783">
        <ele>55.8938</ele>
        <time>2012-03-09T13:08:54Z</time>
      </trkpt>
      <trkpt lat="59.9910632" lon="17.7377423">
        <ele>53.0098</ele>
        <time>2012-03-09T13:09:00Z</time>
      </trkpt>
      <trkpt lat="59.9911446" lon="17.7376685">
        <ele>55.8938</ele>
        <time>2012-03-09T13:09:05Z</time>
      </trkpt>
      <trkpt lat="59.9912743" lon="17.7375967">
        <ele>64.5457</ele>
        <time>2012-03-09T13:09:11Z</time>
      </trkpt>
      <trkpt lat="59.9913381" lon="17.7375571">
        <ele>67.9103</ele>
        <time>2012-03-09T13:09:16Z</time>
      </trkpt>
      <trkpt lat="59.991427" lon="17.7376325">
        <ele>57.8165</ele>
        <time>2012-03-09T13:09:22Z</time>
      </trkpt>
      <trkpt lat="59.9914407" lon="17.7376169">
        <ele>54.9324</ele>
        <time>2012-03-09T13:09:26Z</time>
      </trkpt>
      <trkpt lat="59.9915009" lon="17.7376361">
        <ele>54.9324</ele>
        <time>2012-03-09T13:09:29Z</time>
      </trkpt>
      <trkpt lat="59.9915373" lon="17.7376322">
        <ele>53.4905</ele>
        <time>2012-03-09T13:09:32Z</time>
      </trkpt>
      <trkpt lat="59.99163" lon="17.7376127">
        <ele>55.4131</ele>
        <time>2012-03-09T13:09:36Z</time>
      </trkpt>
      <trkpt lat="59.9917898" lon="17.7376246">
        <ele>57.3358</ele>
        <time>2012-03-09T13:09:44Z</time>
      </trkpt>
      <trkpt lat="59.9918852" lon="17.7376164">
        <ele>52.0486</ele>
        <time>2012-03-09T13:09:50Z</time>
      </trkpt>
      <trkpt lat="59.9919462" lon="17.7375961">
        <ele>51.0872</ele>
        <time>2012-03-09T13:09:55Z</time>
      </trkpt>
      <trkpt lat="59.9919744" lon="17.7375737">
        <ele>50.126</ele>
        <time>2012-03-09T13:10:00Z</time>
      </trkpt>
      <trkpt lat="59.9920509" lon="17.7375454">
        <ele>50.126</ele>
        <time>2012-03-09T13:10:05Z</time>
      </trkpt>
      <trkpt lat="59.992166" lon="17.7374717">
        <ele>53.9712</ele>
        <time>2012-03-09T13:10:11Z</time>
      </trkpt>
      <trkpt lat="59.9922106" lon="17.7374667">
        <ele>52.5292</ele>
        <time>2012-03-09T13:10:16Z</time>
      </trkpt>
      <trkpt lat="59.9921877" lon="17.7374751">
        <ele>50.6066</ele>
        <time>2012-03-09T13:10:17Z</time>
      </trkpt>
      <trkpt lat="59.9920852" lon="17.7375206">
        <ele>53.0098</ele>
        <time>2012-03-09T13:10:22Z</time>
      </trkpt>
      <trkpt lat="59.9920328" lon="17.7375972">
        <ele>49.1646</ele>
        <time>2012-03-09T13:10:27Z</time>
      </trkpt>
      <trkpt lat="59.9918635" lon="17.7376991">
        <ele>44.8386</ele>
        <time>2012-03-09T13:10:32Z</time>
      </trkpt>
      <trkpt lat="59.9917407" lon="17.7377602">
        <ele>44.8386</ele>
        <time>2012-03-09T13:10:36Z</time>
      </trkpt>
      <trkpt lat="59.9917238" lon="17.737753">
        <ele>44.358</ele>
        <time>2012-03-09T13:10:39Z</time>
      </trkpt>
      <trkpt lat="59.9916827" lon="17.7377384">
        <ele>49.1646</ele>
        <time>2012-03-09T13:10:45Z</time>
      </trkpt>
      <trkpt lat="59.9916712" lon="17.7377232">
        <ele>49.6453</ele>
        <time>2012-03-09T13:10:49Z</time>
      </trkpt>
      <trkpt lat="59.9915337" lon="17.7377042">
        <ele>53.9712</ele>
        <time>2012-03-09T13:10:56Z</time>
      </trkpt>
      <trkpt lat="59.9914528" lon="17.7377115">
        <ele>53.9712</ele>
        <time>2012-03-09T13:11:01Z</time>
      </trkpt>
      <trkpt lat="59.9913352" lon="17.737723">
        <ele>49.1646</ele>
        <time>2012-03-09T13:11:06Z</time>
      </trkpt>
      <trkpt lat="59.9912782" lon="17.7377314">
        <ele>50.126</ele>
        <time>2012-03-09T13:11:10Z</time>
      </trkpt>
      <trkpt lat="59.9911605" lon="17.737806">
        <ele>49.1646</ele>
        <time>2012-03-09T13:11:15Z</time>
      </trkpt>
      <trkpt lat="59.9911314" lon="17.7378187">
        <ele>50.6066</ele>
        <time>2012-03-09T13:11:18Z</time>
      </trkpt>
      <trkpt lat="59.9910827" lon="17.7378555">
        <ele>58.7777</ele>
        <time>2012-03-09T13:11:24Z</time>
      </trkpt>
      <trkpt lat="59.9910412" lon="17.7378707">
        <ele>60.2197</ele>
        <time>2012-03-09T13:11:26Z</time>
      </trkpt>
      <trkpt lat="59.9908853" lon="17.7379301">
        <ele>64.5457</ele>
        <time>2012-03-09T13:11:35Z</time>
      </trkpt>
      <trkpt lat="59.9908314" lon="17.7379432">
        <ele>64.5457</ele>
        <time>2012-03-09T13:11:39Z</time>
      </trkpt>
      <trkpt lat="59.9907969" lon="17.7379572">
        <ele>63.1036</ele>
        <time>2012-03-09T13:11:43Z</time>
      </trkpt>
      <trkpt lat="59.9907113" lon="17.738013">
        <ele>66.949</ele>
        <time>2012-03-09T13:11:48Z</time>
      </trkpt>
      <trkpt lat="59.9906912" lon="17.73801">
        <ele>68.3909</ele>
        <time>2012-03-09T13:11:52Z</time>
      </trkpt>
      <trkpt lat="59.9906742" lon="17.7380167">
        <ele>69.8329</ele>
        <time>2012-03-09T13:11:53Z</time>
      </trkpt>
      <trkpt lat="59.9905908" lon="17.7380707">
        <ele>71.7555</ele>
        <time>2012-03-09T13:11:58Z</time>
      </trkpt>
      <trkpt lat="59.9905225" lon="17.7381031">
        <ele>67.4297</ele>
        <time>2012-03-09T13:12:03Z</time>
      </trkpt>
      <trkpt lat="59.9904592" lon="17.7381425">
        <ele>67.4297</ele>
        <time>2012-03-09T13:12:06Z</time>
      </trkpt>
      <trkpt lat="59.9904208" lon="17.7381804">
        <ele>67.4297</ele>
        <time>2012-03-09T13:12:09Z</time>
      </trkpt>
      <trkpt lat="59.9903047" lon="17.7382109">
        <ele>65.9877</ele>
        <time>2012-03-09T13:12:17Z</time>
      </trkpt>
      <trkpt lat="59.9902432" lon="17.7382462">
        <ele>64.5457</ele>
        <time>2012-03-09T13:12:21Z</time>
      </trkpt>
      <trkpt lat="59.9900868" lon="17.7383217">
        <ele>69.3523</ele>
        <time>2012-03-09T13:12:28Z</time>
      </trkpt>
      <trkpt lat="59.9900236" lon="17.7383654">
        <ele>69.8329</ele>
        <time>2012-03-09T13:12:31Z</time>
      </trkpt>
      <trkpt lat="59.9899679" lon="17.7384074">
        <ele>65.9877</ele>
        <time>2012-03-09T13:12:36Z</time>
      </trkpt>
      <trkpt lat="59.98991" lon="17.738423">
        <ele>65.9877</ele>
        <time>2012-03-09T13:12:40Z</time>
      </trkpt>
      <trkpt lat="59.9898203" lon="17.738466">
        <ele>64.5457</ele>
        <time>2012-03-09T13:12:46Z</time>
      </trkpt>
      <trkpt lat="59.9897164" lon="17.73851">
        <ele>67.9103</ele>
        <time>2012-03-09T13:12:51Z</time>
      </trkpt>
      <trkpt lat="59.9896178" lon="17.7385338">
        <ele>72.2362</ele>
        <time>2012-03-09T13:12:56Z</time>
      </trkpt>
      <trkpt lat="59.9895909" lon="17.7385541">
        <ele>72.7169</ele>
        <time>2012-03-09T13:12:58Z</time>
      </trkpt>
      <trkpt lat="59.9894931" lon="17.7385852">
        <ele>76.0814</ele>
        <time>2012-03-09T13:13:04Z</time>
      </trkpt>
      <trkpt lat="59.9894864" lon="17.7385882">
        <ele>74.1588</ele>
        <time>2012-03-09T13:13:05Z</time>
      </trkpt>
      <trkpt lat="59.9894676" lon="17.7385871">
        <ele>71.7555</ele>
        <time>2012-03-09T13:13:07Z</time>
      </trkpt>
      <trkpt lat="59.9893113" lon="17.7386147">
        <ele>77.0428</ele>
        <time>2012-03-09T13:13:15Z</time>
      </trkpt>
      <trkpt lat="59.9892262" lon="17.7386389">
        <ele>76.5621</ele>
        <time>2012-03-09T13:13:22Z</time>
      </trkpt>
      <trkpt lat="59.989132" lon="17.7386657">
        <ele>78.9655</ele>
        <time>2012-03-09T13:13:29Z</time>
      </trkpt>
      <trkpt lat="59.989087" lon="17.7386927">
        <ele>77.5234</ele>
        <time>2012-03-09T13:13:32Z</time>
      </trkpt>
      <trkpt lat="59.9890077" lon="17.7387218">
        <ele>74.6395</ele>
        <time>2012-03-09T13:13:38Z</time>
      </trkpt>
      <trkpt lat="59.988914" lon="17.7388209">
        <ele>74.1588</ele>
        <time>2012-03-09T13:13:44Z</time>
      </trkpt>
      <trkpt lat="59.9888425" lon="17.7388564">
        <ele>67.4297</ele>
        <time>2012-03-09T13:13:50Z</time>
      </trkpt>
      <trkpt lat="59.9888008" lon="17.7388834">
        <ele>66.949</ele>
        <time>2012-03-09T13:13:52Z</time>
      </trkpt>
      <trkpt lat="59.9886818" lon="17.7389959">
        <ele>68.3909</ele>
        <time>2012-03-09T13:13:58Z</time>
      </trkpt>
      <trkpt lat="59.988642" lon="17.7390522">
        <ele>68.3909</ele>
        <time>2012-03-09T13:14:01Z</time>
      </trkpt>
      <trkpt lat="59.9885949" lon="17.7390933">
        <ele>66.4683</ele>
        <time>2012-03-09T13:14:05Z</time>
      </trkpt>
      <trkpt lat="59.988543" lon="17.7391497">
        <ele>67.4297</ele>
        <time>2012-03-09T13:14:10Z</time>
      </trkpt>
      <trkpt lat="59.9884282" lon="17.7391966">
        <ele>71.7555</ele>
        <time>2012-03-09T13:14:17Z</time>
      </trkpt>
      <trkpt lat="59.9883948" lon="17.7392243">
        <ele>69.3523</ele>
        <time>2012-03-09T13:14:20Z</time>
      </trkpt>
      <trkpt lat="59.9882546" lon="17.7393114">
        <ele>72.2362</ele>
        <time>2012-03-09T13:14:27Z</time>
      </trkpt>
      <trkpt lat="59.9881147" lon="17.7393279">
        <ele>77.0428</ele>
        <time>2012-03-09T13:14:34Z</time>
      </trkpt>
      <trkpt lat="59.9880261" lon="17.7393418">
        <ele>75.6008</ele>
        <time>2012-03-09T13:14:40Z</time>
      </trkpt>
      <trkpt lat="59.9879665" lon="17.7393583">
        <ele>71.7555</ele>
        <time>2012-03-09T13:14:45Z</time>
      </trkpt>
      <trkpt lat="59.9878918" lon="17.7393546">
        <ele>71.7555</ele>
        <time>2012-03-09T13:14:49Z</time>
      </trkpt>
      <trkpt lat="59.9878334" lon="17.7393863">
        <ele>68.3909</ele>
        <time>2012-03-09T13:14:53Z</time>
      </trkpt>
      <trkpt lat="59.9877835" lon="17.7393917">
        <ele>65.5071</ele>
        <time>2012-03-09T13:14:57Z</time>
      </trkpt>
      <trkpt lat="59.987739" lon="17.7393802">
        <ele>65.5071</ele>
        <time>2012-03-09T13:15:00Z</time>
      </trkpt>
      <trkpt lat="59.9876536" lon="17.7394067">
        <ele>65.5071</ele>
        <time>2012-03-09T13:15:05Z</time>
      </trkpt>
      <trkpt lat="59.9875514" lon="17.739394">
        <ele>61.6617</ele>
        <time>2012-03-09T13:15:12Z</time>
      </trkpt>
      <trkpt lat="59.9875029" lon="17.7393838">
        <ele>62.1423</ele>
        <time>2012-03-09T13:15:15Z</time>
      </trkpt>
      <trkpt lat="59.9874272" lon="17.7393983">
        <ele>63.5844</ele>
        <time>2012-03-09T13:15:19Z</time>
      </trkpt>
      <trkpt lat="59.9873651" lon="17.7394237">
        <ele>63.5844</ele>
        <time>2012-03-09T13:15:23Z</time>
      </trkpt>
      <trkpt lat="59.9873114" lon="17.7394394">
        <ele>63.5844</ele>
        <time>2012-03-09T13:15:27Z</time>
      </trkpt>
      <trkpt lat="59.9872672" lon="17.739445">
        <ele>61.6617</ele>
        <time>2012-03-09T13:15:31Z</time>
      </trkpt>
      <trkpt lat="59.9871807" lon="17.7394774">
        <ele>61.6617</ele>
        <time>2012-03-09T13:15:36Z</time>
      </trkpt>
      <trkpt lat="59.9871636" lon="17.7394872">
        <ele>62.6229</ele>
        <time>2012-03-09T13:15:37Z</time>
      </trkpt>
      <trkpt lat="59.9871294" lon="17.7395157">
        <ele>60.7003</ele>
        <time>2012-03-09T13:15:40Z</time>
      </trkpt>
      <trkpt lat="59.9870024" lon="17.7394844">
        <ele>65.5071</ele>
        <time>2012-03-09T13:15:48Z</time>
      </trkpt>
      <trkpt lat="59.9869591" lon="17.739447">
        <ele>67.9103</ele>
        <time>2012-03-09T13:15:51Z</time>
      </trkpt>
      <trkpt lat="59.9869191" lon="17.7394242">
        <ele>69.8329</ele>
        <time>2012-03-09T13:15:54Z</time>
      </trkpt>
      <trkpt lat="59.9868937" lon="17.7394211">
        <ele>70.3135</ele>
        <time>2012-03-09T13:15:56Z</time>
      </trkpt>
      <trkpt lat="59.9868242" lon="17.7393335">
        <ele>70.3135</ele>
        <time>2012-03-09T13:16:02Z</time>
      </trkpt>
      <trkpt lat="59.9867632" lon="17.7392439">
        <ele>66.4683</ele>
        <time>2012-03-09T13:16:08Z</time>
      </trkpt>
      <trkpt lat="59.9866393" lon="17.7391713">
        <ele>65.0264</ele>
        <time>2012-03-09T13:16:15Z</time>
      </trkpt>
      <trkpt lat="59.9866351" lon="17.7391574">
        <ele>64.0651</ele>
        <time>2012-03-09T13:16:16Z</time>
      </trkpt>
      <trkpt lat="59.9865636" lon="17.7390821">
        <ele>62.6229</ele>
        <time>2012-03-09T13:16:22Z</time>
      </trkpt>
      <trkpt lat="59.9865311" lon="17.7389885">
        <ele>61.6617</ele>
        <time>2012-03-09T13:16:26Z</time>
      </trkpt>
      <trkpt lat="59.9864447" lon="17.7389248">
        <ele>61.181</ele>
        <time>2012-03-09T13:16:32Z</time>
      </trkpt>
      <trkpt lat="59.9863634" lon="17.7388798">
        <ele>60.2197</ele>
        <time>2012-03-09T13:16:37Z</time>
      </trkpt>
      <trkpt lat="59.9862938" lon="17.7388336">
        <ele>60.2197</ele>
        <time>2012-03-09T13:16:41Z</time>
      </trkpt>
      <trkpt lat="59.9861971" lon="17.738755">
        <ele>61.181</ele>
        <time>2012-03-09T13:16:46Z</time>
      </trkpt>
      <trkpt lat="59.9861828" lon="17.7387456">
        <ele>61.181</ele>
        <time>2012-03-09T13:16:47Z</time>
      </trkpt>
      <trkpt lat="59.986054" lon="17.7386786">
        <ele>65.0264</ele>
        <time>2012-03-09T13:16:53Z</time>
      </trkpt>
      <trkpt lat="59.9860236" lon="17.7386659">
        <ele>65.9877</ele>
        <time>2012-03-09T13:16:55Z</time>
      </trkpt>
      <trkpt lat="59.9859239" lon="17.7386093">
        <ele>67.9103</ele>
        <time>2012-03-09T13:17:00Z</time>
      </trkpt>
      <trkpt lat="59.9858941" lon="17.7385964">
        <ele>69.3523</ele>
        <time>2012-03-09T13:17:02Z</time>
      </trkpt>
      <trkpt lat="59.9858323" lon="17.7385222">
        <ele>71.2749</ele>
        <time>2012-03-09T13:17:06Z</time>
      </trkpt>
      <trkpt lat="59.985765" lon="17.7385171">
        <ele>73.6782</ele>
        <time>2012-03-09T13:17:09Z</time>
      </trkpt>
      <trkpt lat="59.9856944" lon="17.7385013">
        <ele>74.6395</ele>
        <time>2012-03-09T13:17:13Z</time>
      </trkpt>
      <trkpt lat="59.9856644" lon="17.7384566">
        <ele>69.8329</ele>
        <time>2012-03-09T13:17:17Z</time>
      </trkpt>
      <trkpt lat="59.9855669" lon="17.7384111">
        <ele>68.3909</ele>
        <time>2012-03-09T13:17:24Z</time>
      </trkpt>
      <trkpt lat="59.9855033" lon="17.7383846">
        <ele>62.6229</ele>
        <time>2012-03-09T13:17:30Z</time>
      </trkpt>
      <trkpt lat="59.9854897" lon="17.7383818">
        <ele>61.181</ele>
        <time>2012-03-09T13:17:31Z</time>
      </trkpt>
      <trkpt lat="59.9853752" lon="17.738337">
        <ele>62.6229</ele>
        <time>2012-03-09T13:17:37Z</time>
      </trkpt>
      <trkpt lat="59.9852362" lon="17.7382876">
        <ele>64.0651</ele>
        <time>2012-03-09T13:17:45Z</time>
      </trkpt>
      <trkpt lat="59.9851729" lon="17.7382774">
        <ele>61.181</ele>
        <time>2012-03-09T13:17:50Z</time>
      </trkpt>
      <trkpt lat="59.9851028" lon="17.7382642">
        <ele>56.8551</ele>
        <time>2012-03-09T13:17:56Z</time>
      </trkpt>
      <trkpt lat="59.9850722" lon="17.7382588">
        <ele>56.3745</ele>
        <time>2012-03-09T13:17:58Z</time>
      </trkpt>
      <trkpt lat="59.9850268" lon="17.7382722">
        <ele>51.5679</ele>
        <time>2012-03-09T13:18:03Z</time>
      </trkpt>
      <trkpt lat="59.9850186" lon="17.7382904">
        <ele>49.1646</ele>
        <time>2012-03-09T13:18:05Z</time>
      </trkpt>
      <trkpt lat="59.9849257" lon="17.7382195">
        <ele>47.2418</ele>
        <time>2012-03-09T13:18:11Z</time>
      </trkpt>
      <trkpt lat="59.9848405" lon="17.7382314">
        <ele>50.126</ele>
        <time>2012-03-09T13:18:15Z</time>
      </trkpt>
      <trkpt lat="59.9847684" lon="17.7382137">
        <ele>50.6066</ele>
        <time>2012-03-09T13:18:19Z</time>
      </trkpt>
      <trkpt lat="59.9847138" lon="17.7382117">
        <ele>50.6066</ele>
        <time>2012-03-09T13:18:22Z</time>
      </trkpt>
      <trkpt lat="59.984599" lon="17.7381707">
        <ele>53.9712</ele>
        <time>2012-03-09T13:18:28Z</time>
      </trkpt>
      <trkpt lat="59.9845725" lon="17.7381679">
        <ele>55.4131</ele>
        <time>2012-03-09T13:18:29Z</time>
      </trkpt>
      <trkpt lat="59.9844829" lon="17.7381464">
        <ele>55.8938</ele>
        <time>2012-03-09T13:18:35Z</time>
      </trkpt>
      <trkpt lat="59.9844174" lon="17.738114">
        <ele>53.4905</ele>
        <time>2012-03-09T13:18:40Z</time>
      </trkpt>
      <trkpt lat="59.9844045" lon="17.738109">
        <ele>53.0098</ele>
        <time>2012-03-09T13:18:41Z</time>
      </trkpt>
      <trkpt lat="59.9843415" lon="17.7380635">
        <ele>53.0098</ele>
        <time>2012-03-09T13:18:45Z</time>
      </trkpt>
      <trkpt lat="59.984284" lon="17.7380493">
        <ele>52.0486</ele>
        <time>2012-03-09T13:18:49Z</time>
      </trkpt>
      <trkpt lat="59.9842026" lon="17.7380123">
        <ele>54.9324</ele>
        <time>2012-03-09T13:18:53Z</time>
      </trkpt>
      <trkpt lat="59.9841779" lon="17.7380174">
        <ele>56.3745</ele>
        <time>2012-03-09T13:18:54Z</time>
      </trkpt>
      <trkpt lat="59.9840592" lon="17.7380182">
        <ele>58.2971</ele>
        <time>2012-03-09T13:19:01Z</time>
      </trkpt>
      <trkpt lat="59.9839679" lon="17.7380229">
        <ele>55.4131</ele>
        <time>2012-03-09T13:19:07Z</time>
      </trkpt>
      <trkpt lat="59.9838861" lon="17.7380437">
        <ele>50.126</ele>
        <time>2012-03-09T13:19:13Z</time>
      </trkpt>
      <trkpt lat="59.9838116" lon="17.7380793">
        <ele>46.2806</ele>
        <time>2012-03-09T13:19:18Z</time>
      </trkpt>
      <trkpt lat="59.9837765" lon="17.7380998">
        <ele>47.2418</ele>
        <time>2012-03-09T13:19:20Z</time>
      </trkpt>
      <trkpt lat="59.9837181" lon="17.7380905">
        <ele>49.6453</ele>
        <time>2012-03-09T13:19:23Z</time>
      </trkpt>
      <trkpt lat="59.9836207" lon="17.7380593">
        <ele>54.9324</ele>
        <time>2012-03-09T13:19:28Z</time>
      </trkpt>
      <trkpt lat="59.983536" lon="17.7381098">
        <ele>51.5679</ele>
        <time>2012-03-09T13:19:34Z</time>
      </trkpt>
      <trkpt lat="59.9835021" lon="17.7381223">
        <ele>49.1646</ele>
        <time>2012-03-09T13:19:37Z</time>
      </trkpt>
      <trkpt lat="59.9834239" lon="17.7381313">
        <ele>48.684</ele>
        <time>2012-03-09T13:19:42Z</time>
      </trkpt>
      <trkpt lat="59.9833239" lon="17.7381756">
        <ele>51.0872</ele>
        <time>2012-03-09T13:19:47Z</time>
      </trkpt>
      <trkpt lat="59.9832453" lon="17.7382106">
        <ele>52.5292</ele>
        <time>2012-03-09T13:19:52Z</time>
      </trkpt>
      <trkpt lat="59.9831597" lon="17.7382089">
        <ele>54.4518</ele>
        <time>2012-03-09T13:19:57Z</time>
      </trkpt>
      <trkpt lat="59.9830899" lon="17.7382122">
        <ele>57.3358</ele>
        <time>2012-03-09T13:20:01Z</time>
      </trkpt>
      <trkpt lat="59.9829896" lon="17.7382295">
        <ele>61.181</ele>
        <time>2012-03-09T13:20:07Z</time>
      </trkpt>
      <trkpt lat="59.9828916" lon="17.7381935">
        <ele>62.1423</ele>
        <time>2012-03-09T13:20:14Z</time>
      </trkpt>
      <trkpt lat="59.982791" lon="17.7381774">
        <ele>64.5457</ele>
        <time>2012-03-09T13:20:20Z</time>
      </trkpt>
      <trkpt lat="59.9827377" lon="17.7381815">
        <ele>60.2197</ele>
        <time>2012-03-09T13:20:25Z</time>
      </trkpt>
      <trkpt lat="59.9826547" lon="17.7381779">
        <ele>60.7003</ele>
        <time>2012-03-09T13:20:30Z</time>
      </trkpt>
      <trkpt lat="59.9826366" lon="17.7381732">
        <ele>58.2971</ele>
        <time>2012-03-09T13:20:32Z</time>
      </trkpt>
      <trkpt lat="59.9825661" lon="17.7381603">
        <ele>55.8938</ele>
        <time>2012-03-09T13:20:38Z</time>
      </trkpt>
      <trkpt lat="59.982485" lon="17.7381202">
        <ele>56.8551</ele>
        <time>2012-03-09T13:20:43Z</time>
      </trkpt>
      <trkpt lat="59.9823524" lon="17.7381334">
        <ele>61.6617</ele>
        <time>2012-03-09T13:20:50Z</time>
      </trkpt>
      <trkpt lat="59.9822415" lon="17.7381502">
        <ele>64.0651</ele>
        <time>2012-03-09T13:20:56Z</time>
      </trkpt>
      <trkpt lat="59.9821741" lon="17.7381537">
        <ele>64.5457</ele>
        <time>2012-03-09T13:21:00Z</time>
      </trkpt>
      <trkpt lat="59.9820607" lon="17.7382121">
        <ele>66.949</ele>
        <time>2012-03-09T13:21:06Z</time>
      </trkpt>
      <trkpt lat="59.9819663" lon="17.7382732">
        <ele>70.3135</ele>
        <time>2012-03-09T13:21:11Z</time>
      </trkpt>
      <trkpt lat="59.981868" lon="17.7383519">
        <ele>74.1588</ele>
        <time>2012-03-09T13:21:16Z</time>
      </trkpt>
      <trkpt lat="59.9818368" lon="17.7383613">
        <ele>69.8329</ele>
        <time>2012-03-09T13:21:19Z</time>
      </trkpt>
      <trkpt lat="59.9818087" lon="17.7383829">
        <ele>69.3523</ele>
        <time>2012-03-09T13:21:21Z</time>
      </trkpt>
      <trkpt lat="59.9817043" lon="17.7384528">
        <ele>69.3523</ele>
        <time>2012-03-09T13:21:27Z</time>
      </trkpt>
      <trkpt lat="59.9816883" lon="17.7384562">
        <ele>68.8716</ele>
        <time>2012-03-09T13:21:28Z</time>
      </trkpt>
      <trkpt lat="59.9815705" lon="17.7384938">
        <ele>70.3135</ele>
        <time>2012-03-09T13:21:35Z</time>
      </trkpt>
      <trkpt lat="59.9815493" lon="17.7384888">
        <ele>67.9103</ele>
        <time>2012-03-09T13:21:37Z</time>
      </trkpt>
      <trkpt lat="59.9814759" lon="17.7385151">
        <ele>61.6617</ele>
        <time>2012-03-09T13:21:43Z</time>
      </trkpt>
      <trkpt lat="59.9814604" lon="17.7385462">
        <ele>57.3358</ele>
        <time>2012-03-09T13:21:45Z</time>
      </trkpt>
      <trkpt lat="59.9814145" lon="17.7385587">
        <ele>52.5292</ele>
        <time>2012-03-09T13:21:49Z</time>
      </trkpt>
      <trkpt lat="59.981269" lon="17.7385747">
        <ele>53.0098</ele>
        <time>2012-03-09T13:21:56Z</time>
      </trkpt>
      <trkpt lat="59.9812453" lon="17.7385892">
        <ele>51.0872</ele>
        <time>2012-03-09T13:21:58Z</time>
      </trkpt>
      <trkpt lat="59.981159" lon="17.7386435">
        <ele>50.126</ele>
        <time>2012-03-09T13:22:04Z</time>
      </trkpt>
      <trkpt lat="59.9810262" lon="17.7387037">
        <ele>59.7391</ele>
        <time>2012-03-09T13:22:10Z</time>
      </trkpt>
      <trkpt lat="59.9809566" lon="17.7387312">
        <ele>58.7777</ele>
        <time>2012-03-09T13:22:15Z</time>
      </trkpt>
      <trkpt lat="59.9809136" lon="17.7387421">
        <ele>58.7777</ele>
        <time>2012-03-09T13:22:18Z</time>
      </trkpt>
      <trkpt lat="59.9808443" lon="17.7387322">
        <ele>57.3358</ele>
        <time>2012-03-09T13:22:24Z</time>
      </trkpt>
      <trkpt lat="59.9807487" lon="17.7387404">
        <ele>63.1036</ele>
        <time>2012-03-09T13:22:29Z</time>
      </trkpt>
      <trkpt lat="59.9806964" lon="17.7387373">
        <ele>60.2197</ele>
        <time>2012-03-09T13:22:33Z</time>
      </trkpt>
      <trkpt lat="59.9805947" lon="17.7387708">
        <ele>63.5844</ele>
        <time>2012-03-09T13:22:38Z</time>
      </trkpt>
      <trkpt lat="59.9805761" lon="17.738769">
        <ele>63.5844</ele>
        <time>2012-03-09T13:22:39Z</time>
      </trkpt>
      <trkpt lat="59.9804616" lon="17.7387782">
        <ele>68.8716</ele>
        <time>2012-03-09T13:22:45Z</time>
      </trkpt>
      <trkpt lat="59.9803601" lon="17.7388291">
        <ele>68.8716</ele>
        <time>2012-03-09T13:22:51Z</time>
      </trkpt>
      <trkpt lat="59.98033" lon="17.7388288">
        <ele>66.949</ele>
        <time>2012-03-09T13:22:54Z</time>
      </trkpt>
      <trkpt lat="59.980253" lon="17.7388622">
        <ele>62.6229</ele>
        <time>2012-03-09T13:23:00Z</time>
      </trkpt>
      <trkpt lat="59.9801758" lon="17.7388901">
        <ele>62.1423</ele>
        <time>2012-03-09T13:23:04Z</time>
      </trkpt>
      <trkpt lat="59.9800829" lon="17.7389099">
        <ele>53.4905</ele>
        <time>2012-03-09T13:23:11Z</time>
      </trkpt>
      <trkpt lat="59.9800726" lon="17.7389048">
        <ele>49.1646</ele>
        <time>2012-03-09T13:23:13Z</time>
      </trkpt>
      <trkpt lat="59.9800235" lon="17.7388856">
        <ele>47.7225</ele>
        <time>2012-03-09T13:23:17Z</time>
      </trkpt>
      <trkpt lat="59.9799395" lon="17.7388656">
        <ele>47.7225</ele>
        <time>2012-03-09T13:23:23Z</time>
      </trkpt>
      <trkpt lat="59.979824" lon="17.7388845">
        <ele>44.358</ele>
        <time>2012-03-09T13:23:31Z</time>
      </trkpt>
      <trkpt lat="59.9797701" lon="17.7388813">
        <ele>41.9547</ele>
        <time>2012-03-09T13:23:36Z</time>
      </trkpt>
      <trkpt lat="59.9796856" lon="17.7388926">
        <ele>40.0321</ele>
        <time>2012-03-09T13:23:43Z</time>
      </trkpt>
      <trkpt lat="59.9795363" lon="17.7389492">
        <ele>44.8386</ele>
        <time>2012-03-09T13:23:51Z</time>
      </trkpt>
      <trkpt lat="59.9794534" lon="17.7389921">
        <ele>44.358</ele>
        <time>2012-03-09T13:23:57Z</time>
      </trkpt>
      <trkpt lat="59.9793432" lon="17.7390651">
        <ele>44.8386</ele>
        <time>2012-03-09T13:24:04Z</time>
      </trkpt>
      <trkpt lat="59.9792427" lon="17.7391238">
        <ele>42.4354</ele>
        <time>2012-03-09T13:24:11Z</time>
      </trkpt>
      <trkpt lat="59.9791208" lon="17.7392263">
        <ele>41.474</ele>
        <time>2012-03-09T13:24:18Z</time>
      </trkpt>
      <trkpt lat="59.9790055" lon="17.7393108">
        <ele>39.0707</ele>
        <time>2012-03-09T13:24:26Z</time>
      </trkpt>
      <trkpt lat="59.9789898" lon="17.7393201">
        <ele>37.6287</ele>
        <time>2012-03-09T13:24:28Z</time>
      </trkpt>
      <trkpt lat="59.9789094" lon="17.7393562">
        <ele>35.7061</ele>
        <time>2012-03-09T13:24:35Z</time>
      </trkpt>
      <trkpt lat="59.9789018" lon="17.7393558">
        <ele>34.7449</ele>
        <time>2012-03-09T13:24:36Z</time>
      </trkpt>
      <trkpt lat="59.978826" lon="17.7393652">
        <ele>36.6675</ele>
        <time>2012-03-09T13:24:40Z</time>
      </trkpt>
      <trkpt lat="59.9786859" lon="17.7394016">
        <ele>41.9547</ele>
        <time>2012-03-09T13:24:46Z</time>
      </trkpt>
      <trkpt lat="59.9785725" lon="17.7394119">
        <ele>47.7225</ele>
        <time>2012-03-09T13:24:52Z</time>
      </trkpt>
      <trkpt lat="59.9785059" lon="17.7393997">
        <ele>49.1646</ele>
        <time>2012-03-09T13:24:56Z</time>
      </trkpt>
      <trkpt lat="59.9784921" lon="17.7394025">
        <ele>48.2034</ele>
        <time>2012-03-09T13:24:57Z</time>
      </trkpt>
      <trkpt lat="59.9783849" lon="17.7393641">
        <ele>42.916</ele>
        <time>2012-03-09T13:25:05Z</time>
      </trkpt>
      <trkpt lat="59.978316" lon="17.7393564">
        <ele>42.916</ele>
        <time>2012-03-09T13:25:09Z</time>
      </trkpt>
      <trkpt lat="59.9782115" lon="17.7393445">
        <ele>44.8386</ele>
        <time>2012-03-09T13:25:15Z</time>
      </trkpt>
      <trkpt lat="59.9781544" lon="17.7393396">
        <ele>46.7612</ele>
        <time>2012-03-09T13:25:18Z</time>
      </trkpt>
      <trkpt lat="59.9781066" lon="17.7393108">
        <ele>47.7225</ele>
        <time>2012-03-09T13:25:21Z</time>
      </trkpt>
      <trkpt lat="59.9780447" lon="17.7392606">
        <ele>46.7612</ele>
        <time>2012-03-09T13:25:26Z</time>
      </trkpt>
      <trkpt lat="59.9779489" lon="17.7392187">
        <ele>48.2034</ele>
        <time>2012-03-09T13:25:32Z</time>
      </trkpt>
      <trkpt lat="59.9778969" lon="17.7391746">
        <ele>47.2418</ele>
        <time>2012-03-09T13:25:36Z</time>
      </trkpt>
      <trkpt lat="59.9778104" lon="17.7390958">
        <ele>44.358</ele>
        <time>2012-03-09T13:25:43Z</time>
      </trkpt>
      <trkpt lat="59.9777897" lon="17.739088">
        <ele>42.916</ele>
        <time>2012-03-09T13:25:45Z</time>
      </trkpt>
      <trkpt lat="59.9776632" lon="17.7390653">
        <ele>42.4354</ele>
        <time>2012-03-09T13:25:53Z</time>
      </trkpt>
      <trkpt lat="59.9775286" lon="17.7391006">
        <ele>43.3966</ele>
        <time>2012-03-09T13:26:00Z</time>
      </trkpt>
      <trkpt lat="59.9774177" lon="17.7391326">
        <ele>42.916</ele>
        <time>2012-03-09T13:26:06Z</time>
      </trkpt>
      <trkpt lat="59.9773463" lon="17.7391536">
        <ele>41.9547</ele>
        <time>2012-03-09T13:26:11Z</time>
      </trkpt>
      <trkpt lat="59.9772242" lon="17.73922">
        <ele>43.8773</ele>
        <time>2012-03-09T13:26:16Z</time>
      </trkpt>
      <trkpt lat="59.9771665" lon="17.7392671">
        <ele>43.8773</ele>
        <time>2012-03-09T13:26:20Z</time>
      </trkpt>
      <trkpt lat="59.977077" lon="17.7393305">
        <ele>46.7612</ele>
        <time>2012-03-09T13:26:25Z</time>
      </trkpt>
      <trkpt lat="59.9770164" lon="17.7393258">
        <ele>44.8386</ele>
        <time>2012-03-09T13:26:30Z</time>
      </trkpt>
      <trkpt lat="59.976932" lon="17.7393445">
        <ele>41.9547</ele>
        <time>2012-03-09T13:26:37Z</time>
      </trkpt>
      <trkpt lat="59.9768708" lon="17.7393661">
        <ele>40.9934</ele>
        <time>2012-03-09T13:26:41Z</time>
      </trkpt>
      <trkpt lat="59.9767668" lon="17.7394046">
        <ele>41.474</ele>
        <time>2012-03-09T13:26:47Z</time>
      </trkpt>
      <trkpt lat="59.9766676" lon="17.7394398">
        <ele>41.474</ele>
        <time>2012-03-09T13:26:53Z</time>
      </trkpt>
      <trkpt lat="59.9765903" lon="17.7394782">
        <ele>41.9547</ele>
        <time>2012-03-09T13:26:58Z</time>
      </trkpt>
      <trkpt lat="59.9764905" lon="17.7395575">
        <ele>41.9547</ele>
        <time>2012-03-09T13:27:04Z</time>
      </trkpt>
      <trkpt lat="59.9764367" lon="17.7396196">
        <ele>41.474</ele>
        <time>2012-03-09T13:27:08Z</time>
      </trkpt>
      <trkpt lat="59.9764144" lon="17.739731">
        <ele>39.0707</ele>
        <time>2012-03-09T13:27:12Z</time>
      </trkpt>
      <trkpt lat="59.9763485" lon="17.7398307">
        <ele>36.1868</ele>
        <time>2012-03-09T13:27:18Z</time>
      </trkpt>
      <trkpt lat="59.9762862" lon="17.7398666">
        <ele>35.2255</ele>
        <time>2012-03-09T13:27:23Z</time>
      </trkpt>
      <trkpt lat="59.9761604" lon="17.7397821">
        <ele>30.8995</ele>
        <time>2012-03-09T13:27:32Z</time>
      </trkpt>
      <trkpt lat="59.9760591" lon="17.7396497">
        <ele>28.9769</ele>
        <time>2012-03-09T13:27:39Z</time>
      </trkpt>
      <trkpt lat="59.975992" lon="17.7395108">
        <ele>26.0929</ele>
        <time>2012-03-09T13:27:45Z</time>
      </trkpt>
      <trkpt lat="59.975956" lon="17.7394335">
        <ele>25.1317</ele>
        <time>2012-03-09T13:27:48Z</time>
      </trkpt>
      <trkpt lat="59.975873" lon="17.7392907">
        <ele>24.651</ele>
        <time>2012-03-09T13:27:54Z</time>
      </trkpt>
      <trkpt lat="59.9757938" lon="17.739156">
        <ele>24.651</ele>
        <time>2012-03-09T13:28:00Z</time>
      </trkpt>
      <trkpt lat="59.9757061" lon="17.7389973">
        <ele>25.1317</ele>
        <time>2012-03-09T13:28:06Z</time>
      </trkpt>
      <trkpt lat="59.9756586" lon="17.7389098">
        <ele>25.1317</ele>
        <time>2012-03-09T13:28:09Z</time>
      </trkpt>
      <trkpt lat="59.9756346" lon="17.7388752">
        <ele>25.1317</ele>
        <time>2012-03-09T13:28:11Z</time>
      </trkpt>
      <trkpt lat="59.9755813" lon="17.7387499">
        <ele>23.209</ele>
        <time>2012-03-09T13:28:16Z</time>
      </trkpt>
      <trkpt lat="59.9755517" lon="17.7387095">
        <ele>23.6896</ele>
        <time>2012-03-09T13:28:18Z</time>
      </trkpt>
      <trkpt lat="59.9754694" lon="17.7385789">
        <ele>23.209</ele>
        <time>2012-03-09T13:28:25Z</time>
      </trkpt>
      <trkpt lat="59.9753706" lon="17.7383932">
        <ele>23.209</ele>
        <time>2012-03-09T13:28:33Z</time>
      </trkpt>
      <trkpt lat="59.9752929" lon="17.7382567">
        <ele>23.209</ele>
        <time>2012-03-09T13:28:40Z</time>
      </trkpt>
      <trkpt lat="59.9752209" lon="17.7381384">
        <ele>23.209</ele>
        <time>2012-03-09T13:28:46Z</time>
      </trkpt>
      <trkpt lat="59.9751499" lon="17.7380163">
        <ele>23.209</ele>
        <time>2012-03-09T13:28:52Z</time>
      </trkpt>
      <trkpt lat="59.9750633" lon="17.7378749">
        <ele>23.6896</ele>
        <time>2012-03-09T13:28:59Z</time>
      </trkpt>
      <trkpt lat="59.9749749" lon="17.7377096">
        <ele>23.6896</ele>
        <time>2012-03-09T13:29:07Z</time>
      </trkpt>
      <trkpt lat="59.9748919" lon="17.7375356">
        <ele>22.2476</ele>
        <time>2012-03-09T13:29:15Z</time>
      </trkpt>
      <trkpt lat="59.9748365" lon="17.7374323">
        <ele>22.7283</ele>
        <time>2012-03-09T13:29:20Z</time>
      </trkpt>
      <trkpt lat="59.9747759" lon="17.7373247">
        <ele>24.1703</ele>
        <time>2012-03-09T13:29:25Z</time>
      </trkpt>
      <trkpt lat="59.9746935" lon="17.7371805">
        <ele>27.5349</ele>
        <time>2012-03-09T13:29:30Z</time>
      </trkpt>
      <trkpt lat="59.9746252" lon="17.7370424">
        <ele>29.4575</ele>
        <time>2012-03-09T13:29:35Z</time>
      </trkpt>
      <trkpt lat="59.9745577" lon="17.7368794">
        <ele>30.4188</ele>
        <time>2012-03-09T13:29:41Z</time>
      </trkpt>
      <trkpt lat="59.9745128" lon="17.7367456">
        <ele>31.3801</ele>
        <time>2012-03-09T13:29:45Z</time>
      </trkpt>
      <trkpt lat="59.9744849" lon="17.7366229">
        <ele>29.9381</ele>
        <time>2012-03-09T13:29:50Z</time>
      </trkpt>
      <trkpt lat="59.9744325" lon="17.7363286">
        <ele>26.0929</ele>
        <time>2012-03-09T13:30:01Z</time>
      </trkpt>
      <trkpt lat="59.9743838" lon="17.736053">
        <ele>23.6896</ele>
        <time>2012-03-09T13:30:11Z</time>
      </trkpt>
      <trkpt lat="59.9743574" lon="17.7358779">
        <ele>22.7283</ele>
        <time>2012-03-09T13:30:17Z</time>
      </trkpt>
      <trkpt lat="59.9743128" lon="17.7355227">
        <ele>20.8057</ele>
        <time>2012-03-09T13:30:29Z</time>
      </trkpt>
      <trkpt lat="59.9742838" lon="17.7352128">
        <ele>19.8444</ele>
        <time>2012-03-09T13:30:39Z</time>
      </trkpt>
      <trkpt lat="59.974261" lon="17.7348953">
        <ele>19.8444</ele>
        <time>2012-03-09T13:30:49Z</time>
      </trkpt>
      <trkpt lat="59.9742591" lon="17.7346975">
        <ele>20.8057</ele>
        <time>2012-03-09T13:30:55Z</time>
      </trkpt>
      <trkpt lat="59.9742554" lon="17.7343294">
        <ele>21.2864</ele>
        <time>2012-03-09T13:31:06Z</time>
      </trkpt>
      <trkpt lat="59.9742683" lon="17.7340686">
        <ele>20.325</ele>
        <time>2012-03-09T13:31:14Z</time>
      </trkpt>
      <trkpt lat="59.9742792" lon="17.733838">
        <ele>20.325</ele>
        <time>2012-03-09T13:31:21Z</time>
      </trkpt>
      <trkpt lat="59.9742936" lon="17.7334728">
        <ele>20.325</ele>
        <time>2012-03-09T13:31:32Z</time>
      </trkpt>
      <trkpt lat="59.9743061" lon="17.7330771">
        <ele>20.325</ele>
        <time>2012-03-09T13:31:44Z</time>
      </trkpt>
      <trkpt lat="59.9743087" lon="17.7327523">
        <ele>19.8444</ele>
        <time>2012-03-09T13:31:54Z</time>
      </trkpt>
      <trkpt lat="59.9743067" lon="17.7325279">
        <ele>17.9218</ele>
        <time>2012-03-09T13:32:01Z</time>
      </trkpt>
      <trkpt lat="59.9743078" lon="17.7324963">
        <ele>17.9218</ele>
        <time>2012-03-09T13:32:02Z</time>
      </trkpt>
      <trkpt lat="59.974303" lon="17.7322771">
        <ele>16.9604</ele>
        <time>2012-03-09T13:32:09Z</time>
      </trkpt>
      <trkpt lat="59.9742941" lon="17.7318925">
        <ele>17.4412</ele>
        <time>2012-03-09T13:32:21Z</time>
      </trkpt>
      <trkpt lat="59.974296" lon="17.7316763">
        <ele>16.9604</ele>
        <time>2012-03-09T13:32:28Z</time>
      </trkpt>
      <trkpt lat="59.9743035" lon="17.7313164">
        <ele>17.9218</ele>
        <time>2012-03-09T13:32:39Z</time>
      </trkpt>
      <trkpt lat="59.9743186" lon="17.7308797">
        <ele>19.8444</ele>
        <time>2012-03-09T13:32:52Z</time>
      </trkpt>
      <trkpt lat="59.9743399" lon="17.7305482">
        <ele>19.8444</ele>
        <time>2012-03-09T13:33:02Z</time>
      </trkpt>
      <trkpt lat="59.9743774" lon="17.7301514">
        <ele>20.325</ele>
        <time>2012-03-09T13:33:14Z</time>
      </trkpt>
      <trkpt lat="59.9743956" lon="17.7299269">
        <ele>20.8057</ele>
        <time>2012-03-09T13:33:21Z</time>
      </trkpt>
      <trkpt lat="59.9744126" lon="17.729572">
        <ele>20.8057</ele>
        <time>2012-03-09T13:33:32Z</time>
      </trkpt>
      <trkpt lat="59.9744243" lon="17.7292214">
        <ele>19.3638</ele>
        <time>2012-03-09T13:33:43Z</time>
      </trkpt>
      <trkpt lat="59.9744258" lon="17.7289707">
        <ele>17.9218</ele>
        <time>2012-03-09T13:33:51Z</time>
      </trkpt>
      <trkpt lat="59.9744201" lon="17.7287852">
        <ele>17.4412</ele>
        <time>2012-03-09T13:33:57Z</time>
      </trkpt>
      <trkpt lat="59.974405" lon="17.7284954">
        <ele>18.4023</ele>
        <time>2012-03-09T13:34:06Z</time>
      </trkpt>
      <trkpt lat="59.9743979" lon="17.7281963">
        <ele>18.4023</ele>
        <time>2012-03-09T13:34:15Z</time>
      </trkpt>
      <trkpt lat="59.9744" lon="17.7279436">
        <ele>17.4412</ele>
        <time>2012-03-09T13:34:23Z</time>
      </trkpt>
      <trkpt lat="59.9744044" lon="17.7277984">
        <ele>17.9218</ele>
        <time>2012-03-09T13:34:28Z</time>
      </trkpt>
      <trkpt lat="59.9744014" lon="17.7277457">
        <ele>18.4023</ele>
        <time>2012-03-09T13:34:30Z</time>
      </trkpt>
      <trkpt lat="59.9744325" lon="17.727772">
        <ele>17.4412</ele>
        <time>2012-03-09T13:34:34Z</time>
      </trkpt>
      <trkpt lat="59.9744568" lon="17.7278814">
        <ele>16.9604</ele>
        <time>2012-03-09T13:34:37Z</time>
      </trkpt>
      <trkpt lat="59.9744859" lon="17.7280784">
        <ele>17.4412</ele>
        <time>2012-03-09T13:34:43Z</time>
      </trkpt>
      <trkpt lat="59.9744784" lon="17.7282879">
        <ele>17.4412</ele>
        <time>2012-03-09T13:34:49Z</time>
      </trkpt>
      <trkpt lat="59.9744786" lon="17.7286158">
        <ele>18.4023</ele>
        <time>2012-03-09T13:34:59Z</time>
      </trkpt>
      <trkpt lat="59.9744941" lon="17.7288481">
        <ele>17.9218</ele>
        <time>2012-03-09T13:35:06Z</time>
      </trkpt>
      <trkpt lat="59.9745012" lon="17.7290708">
        <ele>18.4023</ele>
        <time>2012-03-09T13:35:13Z</time>
      </trkpt>
      <trkpt lat="59.9745079" lon="17.7293342">
        <ele>18.4023</ele>
        <time>2012-03-09T13:35:21Z</time>
      </trkpt>
      <trkpt lat="59.9745014" lon="17.7295396">
        <ele>18.4023</ele>
        <time>2012-03-09T13:35:27Z</time>
      </trkpt>
      <trkpt lat="59.9744685" lon="17.7298333">
        <ele>19.8444</ele>
        <time>2012-03-09T13:35:36Z</time>
      </trkpt>
      <trkpt lat="59.9744391" lon="17.7300778">
        <ele>20.325</ele>
        <time>2012-03-09T13:35:44Z</time>
      </trkpt>
      <trkpt lat="59.9744092" lon="17.7303469">
        <ele>21.767</ele>
        <time>2012-03-09T13:35:52Z</time>
      </trkpt>
      <trkpt lat="59.9743947" lon="17.7305699">
        <ele>21.2864</ele>
        <time>2012-03-09T13:35:59Z</time>
      </trkpt>
      <trkpt lat="59.9743872" lon="17.7307787">
        <ele>20.8057</ele>
        <time>2012-03-09T13:36:06Z</time>
      </trkpt>
      <trkpt lat="59.9743734" lon="17.7310469">
        <ele>21.767</ele>
        <time>2012-03-09T13:36:15Z</time>
      </trkpt>
      <trkpt lat="59.9743805" lon="17.7312603">
        <ele>21.767</ele>
        <time>2012-03-09T13:36:22Z</time>
      </trkpt>
      <trkpt lat="59.9743696" lon="17.731483">
        <ele>23.209</ele>
        <time>2012-03-09T13:36:29Z</time>
      </trkpt>
      <trkpt lat="59.9743652" lon="17.7317308">
        <ele>25.1317</ele>
        <time>2012-03-09T13:36:37Z</time>
      </trkpt>
      <trkpt lat="59.9743828" lon="17.7320405">
        <ele>26.0929</ele>
        <time>2012-03-09T13:36:47Z</time>
      </trkpt>
      <trkpt lat="59.9744012" lon="17.7322898">
        <ele>27.0543</ele>
        <time>2012-03-09T13:36:55Z</time>
      </trkpt>
      <trkpt lat="59.9744215" lon="17.7325098">
        <ele>27.0543</ele>
        <time>2012-03-09T13:37:02Z</time>
      </trkpt>
      <trkpt lat="59.9744284" lon="17.7326747">
        <ele>27.5349</ele>
        <time>2012-03-09T13:37:07Z</time>
      </trkpt>
      <trkpt lat="59.9744342" lon="17.7328911">
        <ele>28.0155</ele>
        <time>2012-03-09T13:37:14Z</time>
      </trkpt>
      <trkpt lat="59.9744304" lon="17.7331668">
        <ele>28.9769</ele>
        <time>2012-03-09T13:37:23Z</time>
      </trkpt>
      <trkpt lat="59.9744176" lon="17.7334853">
        <ele>26.0929</ele>
        <time>2012-03-09T13:37:32Z</time>
      </trkpt>
      <trkpt lat="59.9744154" lon="17.7336943">
        <ele>24.1703</ele>
        <time>2012-03-09T13:37:38Z</time>
      </trkpt>
      <trkpt lat="59.9744199" lon="17.7339726">
        <ele>22.7283</ele>
        <time>2012-03-09T13:37:46Z</time>
      </trkpt>
      <trkpt lat="59.9743874" lon="17.7342229">
        <ele>24.651</ele>
        <time>2012-03-09T13:37:54Z</time>
      </trkpt>
      <trkpt lat="59.9743652" lon="17.7345112">
        <ele>26.5736</ele>
        <time>2012-03-09T13:38:03Z</time>
      </trkpt>
      <trkpt lat="59.9743686" lon="17.7347679">
        <ele>27.5349</ele>
        <time>2012-03-09T13:38:11Z</time>
      </trkpt>
      <trkpt lat="59.9743891" lon="17.735028">
        <ele>28.0155</ele>
        <time>2012-03-09T13:38:19Z</time>
      </trkpt>
      <trkpt lat="59.9744237" lon="17.7352825">
        <ele>28.9769</ele>
        <time>2012-03-09T13:38:27Z</time>
      </trkpt>
      <trkpt lat="59.9744708" lon="17.7356034">
        <ele>29.9381</ele>
        <time>2012-03-09T13:38:37Z</time>
      </trkpt>
      <trkpt lat="59.9745289" lon="17.7359417">
        <ele>28.9769</ele>
        <time>2012-03-09T13:38:48Z</time>
      </trkpt>
      <trkpt lat="59.974596" lon="17.7362441">
        <ele>28.0155</ele>
        <time>2012-03-09T13:38:58Z</time>
      </trkpt>
      <trkpt lat="59.9746357" lon="17.7364574">
        <ele>27.0543</ele>
        <time>2012-03-09T13:39:05Z</time>
      </trkpt>
      <trkpt lat="59.9747086" lon="17.7367037">
        <ele>27.0543</ele>
        <time>2012-03-09T13:39:14Z</time>
      </trkpt>
      <trkpt lat="59.9748079" lon="17.7369918">
        <ele>27.5349</ele>
        <time>2012-03-09T13:39:25Z</time>
      </trkpt>
      <trkpt lat="59.9749199" lon="17.7372665">
        <ele>28.4962</ele>
        <time>2012-03-09T13:39:36Z</time>
      </trkpt>
      <trkpt lat="59.9750003" lon="17.7374605">
        <ele>28.4962</ele>
        <time>2012-03-09T13:39:44Z</time>
      </trkpt>
      <trkpt lat="59.9751207" lon="17.7376708">
        <ele>28.9769</ele>
        <time>2012-03-09T13:39:54Z</time>
      </trkpt>
      <trkpt lat="59.9751753" lon="17.7377744">
        <ele>26.5736</ele>
        <time>2012-03-09T13:40:00Z</time>
      </trkpt>
      <trkpt lat="59.9752846" lon="17.7379629">
        <ele>26.0929</ele>
        <time>2012-03-09T13:40:10Z</time>
      </trkpt>
      <trkpt lat="59.97534" lon="17.738081">
        <ele>24.651</ele>
        <time>2012-03-09T13:40:16Z</time>
      </trkpt>
      <trkpt lat="59.9754254" lon="17.7382083">
        <ele>24.651</ele>
        <time>2012-03-09T13:40:23Z</time>
      </trkpt>
      <trkpt lat="59.9755142" lon="17.7383352">
        <ele>24.651</ele>
        <time>2012-03-09T13:40:30Z</time>
      </trkpt>
      <trkpt lat="59.9755955" lon="17.7385027">
        <ele>24.651</ele>
        <time>2012-03-09T13:40:37Z</time>
      </trkpt>
      <trkpt lat="59.9756937" lon="17.7387182">
        <ele>23.6896</ele>
        <time>2012-03-09T13:40:46Z</time>
      </trkpt>
      <trkpt lat="59.9757503" lon="17.7388623">
        <ele>21.2864</ele>
        <time>2012-03-09T13:40:53Z</time>
      </trkpt>
      <trkpt lat="59.9758092" lon="17.7390102">
        <ele>19.3638</ele>
        <time>2012-03-09T13:41:00Z</time>
      </trkpt>
      <trkpt lat="59.9758916" lon="17.7391386">
        <ele>18.4023</ele>
        <time>2012-03-09T13:41:06Z</time>
      </trkpt>
      <trkpt lat="59.9759808" lon="17.7392883">
        <ele>18.8831</ele>
        <time>2012-03-09T13:41:13Z</time>
      </trkpt>
      <trkpt lat="59.9760279" lon="17.739406">
        <ele>20.325</ele>
        <time>2012-03-09T13:41:18Z</time>
      </trkpt>
      <trkpt lat="59.9761124" lon="17.739575">
        <ele>20.325</ele>
        <time>2012-03-09T13:41:25Z</time>
      </trkpt>
      <trkpt lat="59.9761808" lon="17.7396889">
        <ele>21.767</ele>
        <time>2012-03-09T13:41:31Z</time>
      </trkpt>
      <trkpt lat="59.9762453" lon="17.7398521">
        <ele>22.2476</ele>
        <time>2012-03-09T13:41:37Z</time>
      </trkpt>
      <trkpt lat="59.9762842" lon="17.7399424">
        <ele>23.6896</ele>
        <time>2012-03-09T13:41:40Z</time>
      </trkpt>
      <trkpt lat="59.9762859" lon="17.7399742">
        <ele>23.209</ele>
        <time>2012-03-09T13:41:41Z</time>
      </trkpt>
      <trkpt lat="59.9762585" lon="17.7401821">
        <ele>22.2476</ele>
        <time>2012-03-09T13:41:48Z</time>
      </trkpt>
      <trkpt lat="59.9762148" lon="17.7403502">
        <ele>22.2476</ele>
        <time>2012-03-09T13:41:54Z</time>
      </trkpt>
      <trkpt lat="59.9761545" lon="17.7405447">
        <ele>24.1703</ele>
        <time>2012-03-09T13:42:01Z</time>
      </trkpt>
      <trkpt lat="59.976085" lon="17.7407504">
        <ele>26.0929</ele>
        <time>2012-03-09T13:42:09Z</time>
      </trkpt>
      <trkpt lat="59.9760281" lon="17.7409584">
        <ele>28.0155</ele>
        <time>2012-03-09T13:42:17Z</time>
      </trkpt>
      <trkpt lat="59.9759701" lon="17.7411858">
        <ele>28.9769</ele>
        <time>2012-03-09T13:42:25Z</time>
      </trkpt>
      <trkpt lat="59.9759285" lon="17.7413937">
        <ele>29.9381</ele>
        <time>2012-03-09T13:42:32Z</time>
      </trkpt>
      <trkpt lat="59.9759004" lon="17.7415696">
        <ele>30.4188</ele>
        <time>2012-03-09T13:42:38Z</time>
      </trkpt>
      <trkpt lat="59.9758573" lon="17.7417728">
        <ele>29.4575</ele>
        <time>2012-03-09T13:42:45Z</time>
      </trkpt>
      <trkpt lat="59.975789" lon="17.742019">
        <ele>30.4188</ele>
        <time>2012-03-09T13:42:53Z</time>
      </trkpt>
      <trkpt lat="59.9757403" lon="17.7421786">
        <ele>31.3801</ele>
        <time>2012-03-09T13:42:59Z</time>
      </trkpt>
      <trkpt lat="59.9757022" lon="17.7423513">
        <ele>30.8995</ele>
        <time>2012-03-09T13:43:05Z</time>
      </trkpt>
      <trkpt lat="59.9756326" lon="17.7425901">
        <ele>32.3416</ele>
        <time>2012-03-09T13:43:13Z</time>
      </trkpt>
      <trkpt lat="59.9755854" lon="17.7427561">
        <ele>32.3416</ele>
        <time>2012-03-09T13:43:19Z</time>
      </trkpt>
      <trkpt lat="59.9755524" lon="17.7428626">
        <ele>31.3801</ele>
        <time>2012-03-09T13:43:23Z</time>
      </trkpt>
      <trkpt lat="59.9754768" lon="17.743129">
        <ele>31.3801</ele>
        <time>2012-03-09T13:43:32Z</time>
      </trkpt>
      <trkpt lat="59.9754246" lon="17.7433021">
        <ele>30.4188</ele>
        <time>2012-03-09T13:43:38Z</time>
      </trkpt>
      <trkpt lat="59.9753841" lon="17.74347">
        <ele>30.4188</ele>
        <time>2012-03-09T13:43:44Z</time>
      </trkpt>
      <trkpt lat="59.9753515" lon="17.7437106">
        <ele>30.4188</ele>
        <time>2012-03-09T13:43:52Z</time>
      </trkpt>
      <trkpt lat="59.975311" lon="17.7439211">
        <ele>31.3801</ele>
        <time>2012-03-09T13:43:59Z</time>
      </trkpt>
      <trkpt lat="59.975254" lon="17.7441661">
        <ele>31.3801</ele>
        <time>2012-03-09T13:44:07Z</time>
      </trkpt>
      <trkpt lat="59.9752364" lon="17.7442557">
        <ele>30.8995</ele>
        <time>2012-03-09T13:44:10Z</time>
      </trkpt>
      <trkpt lat="59.9752319" lon="17.7443277">
        <ele>30.4188</ele>
        <time>2012-03-09T13:44:12Z</time>
      </trkpt>
      <trkpt lat="59.9751784" lon="17.7445894">
        <ele>31.3801</ele>
        <time>2012-03-09T13:44:21Z</time>
      </trkpt>
      <trkpt lat="59.975122" lon="17.7448189">
        <ele>31.8607</ele>
        <time>2012-03-09T13:44:29Z</time>
      </trkpt>
      <trkpt lat="59.9751095" lon="17.7448427">
        <ele>31.3801</ele>
        <time>2012-03-09T13:44:30Z</time>
      </trkpt>
      <trkpt lat="59.9750832" lon="17.7449452">
        <ele>30.8995</ele>
        <time>2012-03-09T13:44:34Z</time>
      </trkpt>
      <trkpt lat="59.9750085" lon="17.7451902">
        <ele>31.8607</ele>
        <time>2012-03-09T13:44:43Z</time>
      </trkpt>
      <trkpt lat="59.9749198" lon="17.7454431">
        <ele>31.8607</ele>
        <time>2012-03-09T13:44:53Z</time>
      </trkpt>
      <trkpt lat="59.9748878" lon="17.7455243">
        <ele>30.4188</ele>
        <time>2012-03-09T13:44:57Z</time>
      </trkpt>
      <trkpt lat="59.9748406" lon="17.7456331">
        <ele>28.4962</ele>
        <time>2012-03-09T13:45:03Z</time>
      </trkpt>
      <trkpt lat="59.9747557" lon="17.7457988">
        <ele>27.5349</ele>
        <time>2012-03-09T13:45:10Z</time>
      </trkpt>
      <trkpt lat="59.9746712" lon="17.7459798">
        <ele>26.0929</ele>
        <time>2012-03-09T13:45:18Z</time>
      </trkpt>
      <trkpt lat="59.9745558" lon="17.7461457">
        <ele>28.4962</ele>
        <time>2012-03-09T13:45:27Z</time>
      </trkpt>
      <trkpt lat="59.9744624" lon="17.7462931">
        <ele>26.5736</ele>
        <time>2012-03-09T13:45:33Z</time>
      </trkpt>
      <trkpt lat="59.9743925" lon="17.7463861">
        <ele>26.5736</ele>
        <time>2012-03-09T13:45:38Z</time>
      </trkpt>
      <trkpt lat="59.9743178" lon="17.7464895">
        <ele>25.1317</ele>
        <time>2012-03-09T13:45:44Z</time>
      </trkpt>
      <trkpt lat="59.9742279" lon="17.7465949">
        <ele>26.0929</ele>
        <time>2012-03-09T13:45:51Z</time>
      </trkpt>
      <trkpt lat="59.9741135" lon="17.7467446">
        <ele>25.6123</ele>
        <time>2012-03-09T13:46:00Z</time>
      </trkpt>
      <trkpt lat="59.9740227" lon="17.7468669">
        <ele>25.1317</ele>
        <time>2012-03-09T13:46:07Z</time>
      </trkpt>
      <trkpt lat="59.9739274" lon="17.7469846">
        <ele>25.1317</ele>
        <time>2012-03-09T13:46:15Z</time>
      </trkpt>
      <trkpt lat="59.973831" lon="17.7470898">
        <ele>23.6896</ele>
        <time>2012-03-09T13:46:23Z</time>
      </trkpt>
      <trkpt lat="59.973735" lon="17.7471959">
        <ele>25.1317</ele>
        <time>2012-03-09T13:46:30Z</time>
      </trkpt>
      <trkpt lat="59.9736648" lon="17.7472711">
        <ele>25.1317</ele>
        <time>2012-03-09T13:46:35Z</time>
      </trkpt>
      <trkpt lat="59.973598" lon="17.7473311">
        <ele>23.6896</ele>
        <time>2012-03-09T13:46:40Z</time>
      </trkpt>
      <trkpt lat="59.9734638" lon="17.7474964">
        <ele>25.1317</ele>
        <time>2012-03-09T13:46:49Z</time>
      </trkpt>
      <trkpt lat="59.9733728" lon="17.7475962">
        <ele>25.6123</ele>
        <time>2012-03-09T13:46:55Z</time>
      </trkpt>
      <trkpt lat="59.9732535" lon="17.7477331">
        <ele>24.651</ele>
        <time>2012-03-09T13:47:03Z</time>
      </trkpt>
      <trkpt lat="59.9731482" lon="17.7478481">
        <ele>24.1703</ele>
        <time>2012-03-09T13:47:11Z</time>
      </trkpt>
      <trkpt lat="59.9730655" lon="17.7479704">
        <ele>22.7283</ele>
        <time>2012-03-09T13:47:18Z</time>
      </trkpt>
      <trkpt lat="59.9730528" lon="17.7479899">
        <ele>22.2476</ele>
        <time>2012-03-09T13:47:19Z</time>
      </trkpt>
      <trkpt lat="59.9729536" lon="17.7481629">
        <ele>20.325</ele>
        <time>2012-03-09T13:47:28Z</time>
      </trkpt>
      <trkpt lat="59.9728401" lon="17.7483563">
        <ele>23.6896</ele>
        <time>2012-03-09T13:47:38Z</time>
      </trkpt>
      <trkpt lat="59.9727727" lon="17.7484921">
        <ele>24.1703</ele>
        <time>2012-03-09T13:47:46Z</time>
      </trkpt>
      <trkpt lat="59.972727" lon="17.7486118">
        <ele>25.1317</ele>
        <time>2012-03-09T13:47:53Z</time>
      </trkpt>
      <trkpt lat="59.9726641" lon="17.7487838">
        <ele>25.6123</ele>
        <time>2012-03-09T13:48:01Z</time>
      </trkpt>
      <trkpt lat="59.972648" lon="17.7488358">
        <ele>25.1317</ele>
        <time>2012-03-09T13:48:03Z</time>
      </trkpt>
      <trkpt lat="59.9725809" lon="17.7489649">
        <ele>22.2476</ele>
        <time>2012-03-09T13:48:09Z</time>
      </trkpt>
      <trkpt lat="59.9725121" lon="17.7490772">
        <ele>19.8444</ele>
        <time>2012-03-09T13:48:15Z</time>
      </trkpt>
      <trkpt lat="59.9724315" lon="17.7492393">
        <ele>17.9218</ele>
        <time>2012-03-09T13:48:22Z</time>
      </trkpt>
      <trkpt lat="59.9723632" lon="17.7493871">
        <ele>18.8831</ele>
        <time>2012-03-09T13:48:29Z</time>
      </trkpt>
      <trkpt lat="59.9723293" lon="17.7494561">
        <ele>18.4023</ele>
        <time>2012-03-09T13:48:32Z</time>
      </trkpt>
      <trkpt lat="59.9722587" lon="17.7496325">
        <ele>20.325</ele>
        <time>2012-03-09T13:48:38Z</time>
      </trkpt>
      <trkpt lat="59.9721792" lon="17.7498378">
        <ele>21.2864</ele>
        <time>2012-03-09T13:48:46Z</time>
      </trkpt>
      <trkpt lat="59.9721116" lon="17.7499647">
        <ele>21.767</ele>
        <time>2012-03-09T13:48:51Z</time>
      </trkpt>
      <trkpt lat="59.9720522" lon="17.7500823">
        <ele>20.8057</ele>
        <time>2012-03-09T13:48:57Z</time>
      </trkpt>
      <trkpt lat="59.9720117" lon="17.7501971">
        <ele>20.325</ele>
        <time>2012-03-09T13:49:01Z</time>
      </trkpt>
      <trkpt lat="59.9719707" lon="17.7503642">
        <ele>18.4023</ele>
        <time>2012-03-09T13:49:08Z</time>
      </trkpt>
      <trkpt lat="59.9719207" lon="17.7504532">
        <ele>17.4412</ele>
        <time>2012-03-09T13:49:12Z</time>
      </trkpt>
      <trkpt lat="59.9718397" lon="17.7506045">
        <ele>19.3638</ele>
        <time>2012-03-09T13:49:19Z</time>
      </trkpt>
      <trkpt lat="59.9718254" lon="17.7506283">
        <ele>19.8444</ele>
        <time>2012-03-09T13:49:20Z</time>
      </trkpt>
      <trkpt lat="59.9718036" lon="17.7506753">
        <ele>20.325</ele>
        <time>2012-03-09T13:49:22Z</time>
      </trkpt>
      <trkpt lat="59.9717362" lon="17.7507619">
        <ele>19.3638</ele>
        <time>2012-03-09T13:49:28Z</time>
      </trkpt>
      <trkpt lat="59.9716358" lon="17.7509334">
        <ele>20.8057</ele>
        <time>2012-03-09T13:49:35Z</time>
      </trkpt>
      <trkpt lat="59.9715504" lon="17.7510604">
        <ele>21.2864</ele>
        <time>2012-03-09T13:49:41Z</time>
      </trkpt>
      <trkpt lat="59.9714783" lon="17.7511427">
        <ele>22.2476</ele>
        <time>2012-03-09T13:49:46Z</time>
      </trkpt>
      <trkpt lat="59.9713834" lon="17.7512442">
        <ele>21.767</ele>
        <time>2012-03-09T13:49:53Z</time>
      </trkpt>
      <trkpt lat="59.971313" lon="17.7513258">
        <ele>21.2864</ele>
        <time>2012-03-09T13:49:58Z</time>
      </trkpt>
      <trkpt lat="59.9712023" lon="17.7514212">
        <ele>22.2476</ele>
        <time>2012-03-09T13:50:06Z</time>
      </trkpt>
      <trkpt lat="59.9710831" lon="17.7515952">
        <ele>22.7283</ele>
        <time>2012-03-09T13:50:15Z</time>
      </trkpt>
      <trkpt lat="59.9709829" lon="17.7517575">
        <ele>22.7283</ele>
        <time>2012-03-09T13:50:22Z</time>
      </trkpt>
      <trkpt lat="59.9708986" lon="17.7518777">
        <ele>22.2476</ele>
        <time>2012-03-09T13:50:28Z</time>
      </trkpt>
      <trkpt lat="59.9708168" lon="17.752002">
        <ele>23.209</ele>
        <time>2012-03-09T13:50:34Z</time>
      </trkpt>
      <trkpt lat="59.9707143" lon="17.7521488">
        <ele>21.2864</ele>
        <time>2012-03-09T13:50:43Z</time>
      </trkpt>
      <trkpt lat="59.9706565" lon="17.7522522">
        <ele>21.2864</ele>
        <time>2012-03-09T13:50:48Z</time>
      </trkpt>
      <trkpt lat="59.9706458" lon="17.7522709">
        <ele>20.8057</ele>
        <time>2012-03-09T13:50:49Z</time>
      </trkpt>
      <trkpt lat="59.9705685" lon="17.7524677">
        <ele>17.4412</ele>
        <time>2012-03-09T13:50:57Z</time>
      </trkpt>
      <trkpt lat="59.9705591" lon="17.7524988">
        <ele>16.9604</ele>
        <time>2012-03-09T13:50:58Z</time>
      </trkpt>
      <trkpt lat="59.9705203" lon="17.7526522">
        <ele>16.4797</ele>
        <time>2012-03-09T13:51:05Z</time>
      </trkpt>
      <trkpt lat="59.9704454" lon="17.7527853">
        <ele>16.4797</ele>
        <time>2012-03-09T13:51:12Z</time>
      </trkpt>
      <trkpt lat="59.9703666" lon="17.7529744">
        <ele>17.9218</ele>
        <time>2012-03-09T13:51:20Z</time>
      </trkpt>
      <trkpt lat="59.9703105" lon="17.7531068">
        <ele>20.325</ele>
        <time>2012-03-09T13:51:26Z</time>
      </trkpt>
      <trkpt lat="59.9702749" lon="17.7532304">
        <ele>20.325</ele>
        <time>2012-03-09T13:51:31Z</time>
      </trkpt>
      <trkpt lat="59.9702338" lon="17.753364">
        <ele>21.2864</ele>
        <time>2012-03-09T13:51:36Z</time>
      </trkpt>
      <trkpt lat="59.9701885" lon="17.7535182">
        <ele>21.2864</ele>
        <time>2012-03-09T13:51:43Z</time>
      </trkpt>
      <trkpt lat="59.970124" lon="17.7536862">
        <ele>22.7283</ele>
        <time>2012-03-09T13:51:50Z</time>
      </trkpt>
      <trkpt lat="59.9700314" lon="17.7538579">
        <ele>22.7283</ele>
        <time>2012-03-09T13:51:58Z</time>
      </trkpt>
      <trkpt lat="59.9699615" lon="17.7539896">
        <ele>22.2476</ele>
        <time>2012-03-09T13:52:04Z</time>
      </trkpt>
      <trkpt lat="59.9699521" lon="17.7540073">
        <ele>22.7283</ele>
        <time>2012-03-09T13:52:07Z</time>
      </trkpt>
      <trkpt lat="59.9699258" lon="17.754031">
        <ele>22.2476</ele>
        <time>2012-03-09T13:52:08Z</time>
      </trkpt>
      <trkpt lat="59.9699376" lon="17.7539543">
        <ele>22.7283</ele>
        <time>2012-03-09T13:52:10Z</time>
      </trkpt>
      <trkpt lat="59.9699567" lon="17.753915">
        <ele>22.2476</ele>
        <time>2012-03-09T13:52:11Z</time>
      </trkpt>
      <trkpt lat="59.9700743" lon="17.7535945">
        <ele>23.6896</ele>
        <time>2012-03-09T13:52:17Z</time>
      </trkpt>
      <trkpt lat="59.970152" lon="17.75338">
        <ele>22.7283</ele>
        <time>2012-03-09T13:52:21Z</time>
      </trkpt>
      <trkpt lat="59.9702396" lon="17.7531389">
        <ele>21.2864</ele>
        <time>2012-03-09T13:52:26Z</time>
      </trkpt>
      <trkpt lat="59.9703148" lon="17.7528822">
        <ele>21.767</ele>
        <time>2012-03-09T13:52:31Z</time>
      </trkpt>
      <trkpt lat="59.9704008" lon="17.7526517">
        <ele>20.8057</ele>
        <time>2012-03-09T13:52:36Z</time>
      </trkpt>
      <trkpt lat="59.9704744" lon="17.7524779">
        <ele>21.767</ele>
        <time>2012-03-09T13:52:40Z</time>
      </trkpt>
      <trkpt lat="59.9705697" lon="17.7522966">
        <ele>21.767</ele>
        <time>2012-03-09T13:52:45Z</time>
      </trkpt>
      <trkpt lat="59.9706636" lon="17.752133">
        <ele>20.8057</ele>
        <time>2012-03-09T13:52:50Z</time>
      </trkpt>
      <trkpt lat="59.9707535" lon="17.7519654">
        <ele>22.2476</ele>
        <time>2012-03-09T13:52:55Z</time>
      </trkpt>
      <trkpt lat="59.9708679" lon="17.7517662">
        <ele>22.7283</ele>
        <time>2012-03-09T13:53:01Z</time>
      </trkpt>
      <trkpt lat="59.9709732" lon="17.7516292">
        <ele>22.7283</ele>
        <time>2012-03-09T13:53:06Z</time>
      </trkpt>
      <trkpt lat="59.9710502" lon="17.7515285">
        <ele>22.7283</ele>
        <time>2012-03-09T13:53:10Z</time>
      </trkpt>
      <trkpt lat="59.9711502" lon="17.7514066">
        <ele>22.2476</ele>
        <time>2012-03-09T13:53:15Z</time>
      </trkpt>
      <trkpt lat="59.9712493" lon="17.751292">
        <ele>22.2476</ele>
        <time>2012-03-09T13:53:20Z</time>
      </trkpt>
      <trkpt lat="59.9713504" lon="17.7511608">
        <ele>22.7283</ele>
        <time>2012-03-09T13:53:25Z</time>
      </trkpt>
      <trkpt lat="59.9713694" lon="17.7511257">
        <ele>22.7283</ele>
        <time>2012-03-09T13:53:26Z</time>
      </trkpt>
      <trkpt lat="59.9714659" lon="17.7509779">
        <ele>23.6896</ele>
        <time>2012-03-09T13:53:31Z</time>
      </trkpt>
      <trkpt lat="59.9715845" lon="17.750814">
        <ele>24.1703</ele>
        <time>2012-03-09T13:53:37Z</time>
      </trkpt>
      <trkpt lat="59.9716859" lon="17.7506635">
        <ele>25.1317</ele>
        <time>2012-03-09T13:53:42Z</time>
      </trkpt>
      <trkpt lat="59.971791" lon="17.7504547">
        <ele>26.5736</ele>
        <time>2012-03-09T13:53:48Z</time>
      </trkpt>
      <trkpt lat="59.9718752" lon="17.7502697">
        <ele>27.5349</ele>
        <time>2012-03-09T13:53:53Z</time>
      </trkpt>
      <trkpt lat="59.9719968" lon="17.7500026">
        <ele>27.5349</ele>
        <time>2012-03-09T13:54:00Z</time>
      </trkpt>
      <trkpt lat="59.9720725" lon="17.7498316">
        <ele>28.4962</ele>
        <time>2012-03-09T13:54:05Z</time>
      </trkpt>
      <trkpt lat="59.972146" lon="17.7496715">
        <ele>28.4962</ele>
        <time>2012-03-09T13:54:10Z</time>
      </trkpt>
      <trkpt lat="59.9722214" lon="17.7495232">
        <ele>27.5349</ele>
        <time>2012-03-09T13:54:15Z</time>
      </trkpt>
      <trkpt lat="59.9722805" lon="17.7493787">
        <ele>28.0155</ele>
        <time>2012-03-09T13:54:19Z</time>
      </trkpt>
      <trkpt lat="59.972337" lon="17.7492448">
        <ele>28.4962</ele>
        <time>2012-03-09T13:54:22Z</time>
      </trkpt>
      <trkpt lat="59.972445" lon="17.7490034">
        <ele>28.0155</ele>
        <time>2012-03-09T13:54:28Z</time>
      </trkpt>
      <trkpt lat="59.9725147" lon="17.7488516">
        <ele>27.5349</ele>
        <time>2012-03-09T13:54:32Z</time>
      </trkpt>
      <trkpt lat="59.9725859" lon="17.7487172">
        <ele>26.0929</ele>
        <time>2012-03-09T13:54:36Z</time>
      </trkpt>
      <trkpt lat="59.9726671" lon="17.7485365">
        <ele>25.1317</ele>
        <time>2012-03-09T13:54:41Z</time>
      </trkpt>
      <trkpt lat="59.9727534" lon="17.7483385">
        <ele>25.1317</ele>
        <time>2012-03-09T13:54:46Z</time>
      </trkpt>
      <trkpt lat="59.9728158" lon="17.7481844">
        <ele>24.651</ele>
        <time>2012-03-09T13:54:50Z</time>
      </trkpt>
      <trkpt lat="59.9728701" lon="17.748078">
        <ele>25.1317</ele>
        <time>2012-03-09T13:54:53Z</time>
      </trkpt>
      <trkpt lat="59.9729651" lon="17.7479199">
        <ele>24.651</ele>
        <time>2012-03-09T13:54:58Z</time>
      </trkpt>
      <trkpt lat="59.9730785" lon="17.7478093">
        <ele>25.1317</ele>
        <time>2012-03-09T13:55:03Z</time>
      </trkpt>
      <trkpt lat="59.9732197" lon="17.747659">
        <ele>25.1317</ele>
        <time>2012-03-09T13:55:09Z</time>
      </trkpt>
      <trkpt lat="59.9733557" lon="17.747482">
        <ele>28.4962</ele>
        <time>2012-03-09T13:55:15Z</time>
      </trkpt>
      <trkpt lat="59.9734766" lon="17.7473517">
        <ele>28.9769</ele>
        <time>2012-03-09T13:55:20Z</time>
      </trkpt>
      <trkpt lat="59.9735653" lon="17.7472372">
        <ele>29.4575</ele>
        <time>2012-03-09T13:55:24Z</time>
      </trkpt>
      <trkpt lat="59.9736752" lon="17.7471348">
        <ele>28.0155</ele>
        <time>2012-03-09T13:55:29Z</time>
      </trkpt>
      <trkpt lat="59.9736954" lon="17.7471334">
        <ele>28.0155</ele>
        <time>2012-03-09T13:55:30Z</time>
      </trkpt>
      <trkpt lat="59.9738181" lon="17.7470134">
        <ele>25.6123</ele>
        <time>2012-03-09T13:55:36Z</time>
      </trkpt>
      <trkpt lat="59.9739457" lon="17.746881">
        <ele>23.6896</ele>
        <time>2012-03-09T13:55:42Z</time>
      </trkpt>
      <trkpt lat="59.9739646" lon="17.7468581">
        <ele>23.209</ele>
        <time>2012-03-09T13:55:43Z</time>
      </trkpt>
      <trkpt lat="59.974047" lon="17.7467715">
        <ele>23.209</ele>
        <time>2012-03-09T13:55:47Z</time>
      </trkpt>
      <trkpt lat="59.9741893" lon="17.7465752">
        <ele>22.7283</ele>
        <time>2012-03-09T13:55:54Z</time>
      </trkpt>
      <trkpt lat="59.9742873" lon="17.7464147">
        <ele>24.651</ele>
        <time>2012-03-09T13:55:59Z</time>
      </trkpt>
      <trkpt lat="59.9743869" lon="17.7462651">
        <ele>25.6123</ele>
        <time>2012-03-09T13:56:04Z</time>
      </trkpt>
      <trkpt lat="59.9745072" lon="17.7460941">
        <ele>26.5736</ele>
        <time>2012-03-09T13:56:10Z</time>
      </trkpt>
      <trkpt lat="59.9746194" lon="17.7458801">
        <ele>28.4962</ele>
        <time>2012-03-09T13:56:16Z</time>
      </trkpt>
      <trkpt lat="59.9747253" lon="17.745642">
        <ele>28.4962</ele>
        <time>2012-03-09T13:56:22Z</time>
      </trkpt>
      <trkpt lat="59.9748232" lon="17.7454305">
        <ele>28.0155</ele>
        <time>2012-03-09T13:56:28Z</time>
      </trkpt>
      <trkpt lat="59.9748527" lon="17.7453482">
        <ele>28.0155</ele>
        <time>2012-03-09T13:56:30Z</time>
      </trkpt>
      <trkpt lat="59.9749351" lon="17.7450774">
        <ele>28.4962</ele>
        <time>2012-03-09T13:56:36Z</time>
      </trkpt>
      <trkpt lat="59.9750097" lon="17.7448442">
        <ele>28.9769</ele>
        <time>2012-03-09T13:56:41Z</time>
      </trkpt>
      <trkpt lat="59.9750627" lon="17.7446525">
        <ele>29.9381</ele>
        <time>2012-03-09T13:56:45Z</time>
      </trkpt>
      <trkpt lat="59.9751207" lon="17.7443882">
        <ele>33.7834</ele>
        <time>2012-03-09T13:56:50Z</time>
      </trkpt>
      <trkpt lat="59.9751889" lon="17.7440146">
        <ele>36.6675</ele>
        <time>2012-03-09T13:56:57Z</time>
      </trkpt>
      <trkpt lat="59.975225" lon="17.7437893">
        <ele>37.6287</ele>
        <time>2012-03-09T13:57:01Z</time>
      </trkpt>
      <trkpt lat="59.9752678" lon="17.7436067">
        <ele>36.1868</ele>
        <time>2012-03-09T13:57:05Z</time>
      </trkpt>
      <trkpt lat="59.9753167" lon="17.7433856">
        <ele>35.2255</ele>
        <time>2012-03-09T13:57:10Z</time>
      </trkpt>
      <trkpt lat="59.9753863" lon="17.7431012">
        <ele>35.7061</ele>
        <time>2012-03-09T13:57:16Z</time>
      </trkpt>
      <trkpt lat="59.9754742" lon="17.7427618">
        <ele>35.2255</ele>
        <time>2012-03-09T13:57:23Z</time>
      </trkpt>
      <trkpt lat="59.9755367" lon="17.7425152">
        <ele>35.2255</ele>
        <time>2012-03-09T13:57:28Z</time>
      </trkpt>
      <trkpt lat="59.9755989" lon="17.7422548">
        <ele>35.7061</ele>
        <time>2012-03-09T13:57:33Z</time>
      </trkpt>
      <trkpt lat="59.9756636" lon="17.7419977">
        <ele>35.7061</ele>
        <time>2012-03-09T13:57:38Z</time>
      </trkpt>
      <trkpt lat="59.9757258" lon="17.7417771">
        <ele>35.7061</ele>
        <time>2012-03-09T13:57:43Z</time>
      </trkpt>
      <trkpt lat="59.9757338" lon="17.7417523">
        <ele>35.7061</ele>
        <time>2012-03-09T13:57:44Z</time>
      </trkpt>
      <trkpt lat="59.9757611" lon="17.7416807">
        <ele>32.8223</ele>
        <time>2012-03-09T13:57:49Z</time>
      </trkpt>
      <trkpt lat="59.9757758" lon="17.7416204">
        <ele>31.8607</ele>
        <time>2012-03-09T13:57:52Z</time>
      </trkpt>
      <trkpt lat="59.9757976" lon="17.7414735">
        <ele>33.3029</ele>
        <time>2012-03-09T13:57:57Z</time>
      </trkpt>
      <trkpt lat="59.9758388" lon="17.7413168">
        <ele>32.3416</ele>
        <time>2012-03-09T13:58:04Z</time>
      </trkpt>
      <trkpt lat="59.9758497" lon="17.7411956">
        <ele>32.8223</ele>
        <time>2012-03-09T13:58:08Z</time>
      </trkpt>
      <trkpt lat="59.9758544" lon="17.7411768">
        <ele>32.3416</ele>
        <time>2012-03-09T13:58:09Z</time>
      </trkpt>
      <trkpt lat="59.9758999" lon="17.7410176">
        <ele>31.8607</ele>
        <time>2012-03-09T13:58:15Z</time>
      </trkpt>
      <trkpt lat="59.9759431" lon="17.7409176">
        <ele>29.9381</ele>
        <time>2012-03-09T13:58:20Z</time>
      </trkpt>
      <trkpt lat="59.9759777" lon="17.740781">
        <ele>28.9769</ele>
        <time>2012-03-09T13:58:25Z</time>
      </trkpt>
      <trkpt lat="59.9759895" lon="17.7407302">
        <ele>29.4575</ele>
        <time>2012-03-09T13:58:27Z</time>
      </trkpt>
      <trkpt lat="59.9760284" lon="17.7406551">
        <ele>28.4962</ele>
        <time>2012-03-09T13:58:31Z</time>
      </trkpt>
      <trkpt lat="59.9760374" lon="17.7406307">
        <ele>28.4962</ele>
        <time>2012-03-09T13:58:32Z</time>
      </trkpt>
      <trkpt lat="59.9760963" lon="17.7404753">
        <ele>27.0543</ele>
        <time>2012-03-09T13:58:39Z</time>
      </trkpt>
      <trkpt lat="59.9761281" lon="17.7403568">
        <ele>26.5736</ele>
        <time>2012-03-09T13:58:44Z</time>
      </trkpt>
      <trkpt lat="59.9761606" lon="17.7402277">
        <ele>27.0543</ele>
        <time>2012-03-09T13:58:51Z</time>
      </trkpt>
      <trkpt lat="59.9762023" lon="17.7401551">
        <ele>26.5736</ele>
        <time>2012-03-09T13:58:56Z</time>
      </trkpt>
      <trkpt lat="59.9762466" lon="17.7400566">
        <ele>26.0929</ele>
        <time>2012-03-09T13:59:00Z</time>
      </trkpt>
      <trkpt lat="59.9763311" lon="17.7397858">
        <ele>24.651</ele>
        <time>2012-03-09T13:59:11Z</time>
      </trkpt>
      <trkpt lat="59.9763585" lon="17.7397211">
        <ele>24.651</ele>
        <time>2012-03-09T13:59:14Z</time>
      </trkpt>
      <trkpt lat="59.9763945" lon="17.7396081">
        <ele>24.651</ele>
        <time>2012-03-09T13:59:18Z</time>
      </trkpt>
      <trkpt lat="59.9764406" lon="17.7395277">
        <ele>24.1703</ele>
        <time>2012-03-09T13:59:22Z</time>
      </trkpt>
      <trkpt lat="59.9764858" lon="17.7394681">
        <ele>23.209</ele>
        <time>2012-03-09T13:59:26Z</time>
      </trkpt>
      <trkpt lat="59.9765966" lon="17.7393584">
        <ele>22.7283</ele>
        <time>2012-03-09T13:59:35Z</time>
      </trkpt>
      <trkpt lat="59.9766698" lon="17.7393086">
        <ele>23.209</ele>
        <time>2012-03-09T13:59:41Z</time>
      </trkpt>
      <trkpt lat="59.9767702" lon="17.7392845">
        <ele>24.1703</ele>
        <time>2012-03-09T13:59:48Z</time>
      </trkpt>
      <trkpt lat="59.9768412" lon="17.7392511">
        <ele>26.0929</ele>
        <time>2012-03-09T13:59:54Z</time>
      </trkpt>
      <trkpt lat="59.9769022" lon="17.7392336">
        <ele>26.5736</ele>
        <time>2012-03-09T13:59:59Z</time>
      </trkpt>
      <trkpt lat="59.9769854" lon="17.7392093">
        <ele>26.5736</ele>
        <time>2012-03-09T14:00:05Z</time>
      </trkpt>
      <trkpt lat="59.9771044" lon="17.7391689">
        <ele>25.6123</ele>
        <time>2012-03-09T14:00:14Z</time>
      </trkpt>
      <trkpt lat="59.9771877" lon="17.7391304">
        <ele>25.6123</ele>
        <time>2012-03-09T14:00:20Z</time>
      </trkpt>
      <trkpt lat="59.9773069" lon="17.7390754">
        <ele>25.6123</ele>
        <time>2012-03-09T14:00:28Z</time>
      </trkpt>
      <trkpt lat="59.9773882" lon="17.7390212">
        <ele>26.0929</ele>
        <time>2012-03-09T14:00:34Z</time>
      </trkpt>
      <trkpt lat="59.9775033" lon="17.7389832">
        <ele>27.0543</ele>
        <time>2012-03-09T14:00:42Z</time>
      </trkpt>
      <trkpt lat="59.9776194" lon="17.7389705">
        <ele>27.0543</ele>
        <time>2012-03-09T14:00:51Z</time>
      </trkpt>
      <trkpt lat="59.9776452" lon="17.7389664">
        <ele>27.5349</ele>
        <time>2012-03-09T14:00:53Z</time>
      </trkpt>
      <trkpt lat="59.9776966" lon="17.7389799">
        <ele>28.4962</ele>
        <time>2012-03-09T14:00:57Z</time>
      </trkpt>
      <trkpt lat="59.9777761" lon="17.7390188">
        <ele>27.5349</ele>
        <time>2012-03-09T14:01:03Z</time>
      </trkpt>
      <trkpt lat="59.9778715" lon="17.7390576">
        <ele>28.0155</ele>
        <time>2012-03-09T14:01:10Z</time>
      </trkpt>
      <trkpt lat="59.977948" lon="17.7390756">
        <ele>28.4962</ele>
        <time>2012-03-09T14:01:15Z</time>
      </trkpt>
      <trkpt lat="59.9780249" lon="17.7391062">
        <ele>29.4575</ele>
        <time>2012-03-09T14:01:21Z</time>
      </trkpt>
      <trkpt lat="59.9780473" lon="17.739131">
        <ele>28.9769</ele>
        <time>2012-03-09T14:01:23Z</time>
      </trkpt>
      <trkpt lat="59.9781073" lon="17.7391477">
        <ele>29.4575</ele>
        <time>2012-03-09T14:01:27Z</time>
      </trkpt>
      <trkpt lat="59.9781705" lon="17.7391793">
        <ele>29.9381</ele>
        <time>2012-03-09T14:01:32Z</time>
      </trkpt>
      <trkpt lat="59.9782746" lon="17.7392227">
        <ele>30.4188</ele>
        <time>2012-03-09T14:01:40Z</time>
      </trkpt>
      <trkpt lat="59.9783125" lon="17.7392128">
        <ele>30.4188</ele>
        <time>2012-03-09T14:01:43Z</time>
      </trkpt>
      <trkpt lat="59.978399" lon="17.7392347">
        <ele>29.4575</ele>
        <time>2012-03-09T14:01:50Z</time>
      </trkpt>
      <trkpt lat="59.9784959" lon="17.7392533">
        <ele>28.4962</ele>
        <time>2012-03-09T14:01:58Z</time>
      </trkpt>
      <trkpt lat="59.9785243" lon="17.7392668">
        <ele>28.4962</ele>
        <time>2012-03-09T14:02:00Z</time>
      </trkpt>
      <trkpt lat="59.9785536" lon="17.7392694">
        <ele>28.9769</ele>
        <time>2012-03-09T14:02:02Z</time>
      </trkpt>
      <trkpt lat="59.9786639" lon="17.7392739">
        <ele>29.9381</ele>
        <time>2012-03-09T14:02:09Z</time>
      </trkpt>
      <trkpt lat="59.9787635" lon="17.7392746">
        <ele>30.8995</ele>
        <time>2012-03-09T14:02:16Z</time>
      </trkpt>
      <trkpt lat="59.9788462" lon="17.7393072">
        <ele>30.8995</ele>
        <time>2012-03-09T14:02:22Z</time>
      </trkpt>
      <trkpt lat="59.9788844" lon="17.7393437">
        <ele>29.4575</ele>
        <time>2012-03-09T14:02:26Z</time>
      </trkpt>
    </trkseg>
  </trk>
</gpx>